<gpx creator="Cyclotour.ca" version="1.1" xmlns:gpsies="http://www.gpsies.com/GPX/1/0" xmlns:xsi="http://www.w3.org/2001/XMLSchema-instance" xmlns="http://www.topografix.com/GPX/1/1" xsi:schemaLocation="http://www.topografix.com/GPX/1/1 http://www.topografix.com/GPX/1/1/gpx.xsd http://www.gpsies.com/GPX/1/0 http://www.gpsies.com/gpsies.xsd">
<trk>
<name>Pierreville/St-Gérard Majella </name>
<trkseg>
<trkpt lat="46.067140000" lon="-72.812350000">
<ele>0</ele>
<time>2026-09-04T06:35:05Z</time>
</trkpt>
<trkpt lat="46.066510000" lon="-72.811530000">
<ele>0</ele>
<time>2026-09-04T06:35:06Z</time>
</trkpt>
<trkpt lat="46.066330000" lon="-72.811270000">
<ele>0</ele>
<time>2026-09-04T06:35:07Z</time>
</trkpt>
<trkpt lat="46.065980000" lon="-72.810640000">
<ele>0</ele>
<time>2026-09-04T06:35:08Z</time>
</trkpt>
<trkpt lat="46.065690000" lon="-72.810090000">
<ele>0</ele>
<time>2026-09-04T06:35:09Z</time>
</trkpt>
<trkpt lat="46.065370000" lon="-72.809460000">
<ele>0</ele>
<time>2026-09-04T06:35:10Z</time>
</trkpt>
<trkpt lat="46.064310000" lon="-72.807630000">
<ele>0</ele>
<time>2026-09-04T06:35:11Z</time>
</trkpt>
<trkpt lat="46.064130000" lon="-72.807330000">
<ele>0</ele>
<time>2026-09-04T06:35:12Z</time>
</trkpt>
<trkpt lat="46.064100000" lon="-72.807220000">
<ele>0</ele>
<time>2026-09-04T06:35:13Z</time>
</trkpt>
<trkpt lat="46.064120000" lon="-72.807160000">
<ele>0</ele>
<time>2026-09-04T06:35:14Z</time>
</trkpt>
<trkpt lat="46.064120000" lon="-72.807160000">
<ele>0</ele>
<time>2026-09-04T06:35:15Z</time>
</trkpt>
<trkpt lat="46.065610000" lon="-72.805230000">
<ele>0</ele>
<time>2026-09-04T06:35:16Z</time>
</trkpt>
<trkpt lat="46.066110000" lon="-72.804590000">
<ele>0</ele>
<time>2026-09-04T06:35:17Z</time>
</trkpt>
<trkpt lat="46.066590000" lon="-72.803910000">
<ele>0</ele>
<time>2026-09-04T06:35:18Z</time>
</trkpt>
<trkpt lat="46.067080000" lon="-72.803270000">
<ele>0</ele>
<time>2026-09-04T06:35:19Z</time>
</trkpt>
<trkpt lat="46.067510000" lon="-72.802680000">
<ele>0</ele>
<time>2026-09-04T06:35:20Z</time>
</trkpt>
<trkpt lat="46.067560000" lon="-72.802610000">
<ele>0</ele>
<time>2026-09-04T06:35:21Z</time>
</trkpt>
<trkpt lat="46.067570000" lon="-72.802680000">
<ele>0</ele>
<time>2026-09-04T06:35:22Z</time>
</trkpt>
<trkpt lat="46.067590000" lon="-72.802730000">
<ele>0</ele>
<time>2026-09-04T06:35:23Z</time>
</trkpt>
<trkpt lat="46.067590000" lon="-72.802730000">
<ele>0</ele>
<time>2026-09-04T06:35:24Z</time>
</trkpt>
<trkpt lat="46.068360000" lon="-72.805270000">
<ele>0</ele>
<time>2026-09-04T06:35:25Z</time>
</trkpt>
<trkpt lat="46.068800000" lon="-72.806830000">
<ele>0</ele>
<time>2026-09-04T06:35:26Z</time>
</trkpt>
<trkpt lat="46.069360000" lon="-72.808640000">
<ele>0</ele>
<time>2026-09-04T06:35:27Z</time>
</trkpt>
<trkpt lat="46.069570000" lon="-72.809350000">
<ele>0</ele>
<time>2026-09-04T06:35:28Z</time>
</trkpt>
<trkpt lat="46.069820000" lon="-72.810150000">
<ele>0</ele>
<time>2026-09-04T06:35:29Z</time>
</trkpt>
<trkpt lat="46.069770000" lon="-72.810200000">
<ele>0</ele>
<time>2026-09-04T06:35:30Z</time>
</trkpt>
<trkpt lat="46.069770000" lon="-72.810200000">
<ele>0</ele>
<time>2026-09-04T06:35:31Z</time>
</trkpt>
<trkpt lat="46.068550000" lon="-72.811550000">
<ele>0</ele>
<time>2026-09-04T06:35:32Z</time>
</trkpt>
<trkpt lat="46.068590000" lon="-72.811650000">
<ele>0</ele>
<time>2026-09-04T06:35:33Z</time>
</trkpt>
<trkpt lat="46.068590000" lon="-72.811650000">
<ele>0</ele>
<time>2026-09-04T06:35:34Z</time>
</trkpt>
<trkpt lat="46.069230000" lon="-72.812990000">
<ele>0</ele>
<time>2026-09-04T06:35:35Z</time>
</trkpt>
<trkpt lat="46.069590000" lon="-72.813740000">
<ele>0</ele>
<time>2026-09-04T06:35:36Z</time>
</trkpt>
<trkpt lat="46.069540000" lon="-72.813810000">
<ele>0</ele>
<time>2026-09-04T06:35:37Z</time>
</trkpt>
<trkpt lat="46.069540000" lon="-72.813810000">
<ele>0</ele>
<time>2026-09-04T06:35:38Z</time>
</trkpt>
<trkpt lat="46.068990000" lon="-72.814610000">
<ele>0</ele>
<time>2026-09-04T06:35:39Z</time>
</trkpt>
<trkpt lat="46.068870000" lon="-72.814760000">
<ele>0</ele>
<time>2026-09-04T06:35:40Z</time>
</trkpt>
<trkpt lat="46.068620000" lon="-72.815060000">
<ele>0</ele>
<time>2026-09-04T06:35:41Z</time>
</trkpt>
<trkpt lat="46.068300000" lon="-72.815430000">
<ele>0</ele>
<time>2026-09-04T06:35:42Z</time>
</trkpt>
<trkpt lat="46.067990000" lon="-72.815720000">
<ele>0</ele>
<time>2026-09-04T06:35:43Z</time>
</trkpt>
<trkpt lat="46.067750000" lon="-72.815940000">
<ele>0</ele>
<time>2026-09-04T06:35:44Z</time>
</trkpt>
<trkpt lat="46.066800000" lon="-72.816690000">
<ele>0</ele>
<time>2026-09-04T06:35:45Z</time>
</trkpt>
<trkpt lat="46.065630000" lon="-72.817590000">
<ele>0</ele>
<time>2026-09-04T06:35:46Z</time>
</trkpt>
<trkpt lat="46.064330000" lon="-72.818620000">
<ele>0</ele>
<time>2026-09-04T06:35:47Z</time>
</trkpt>
<trkpt lat="46.064000000" lon="-72.818890000">
<ele>0</ele>
<time>2026-09-04T06:35:48Z</time>
</trkpt>
<trkpt lat="46.063770000" lon="-72.819030000">
<ele>0</ele>
<time>2026-09-04T06:35:49Z</time>
</trkpt>
<trkpt lat="46.063800000" lon="-72.819130000">
<ele>0</ele>
<time>2026-09-04T06:35:50Z</time>
</trkpt>
<trkpt lat="46.063800000" lon="-72.819130000">
<ele>0</ele>
<time>2026-09-04T06:35:51Z</time>
</trkpt>
<trkpt lat="46.064100000" lon="-72.820350000">
<ele>0</ele>
<time>2026-09-04T06:35:52Z</time>
</trkpt>
<trkpt lat="46.064340000" lon="-72.821050000">
<ele>0</ele>
<time>2026-09-04T06:35:53Z</time>
</trkpt>
<trkpt lat="46.064730000" lon="-72.822190000">
<ele>0</ele>
<time>2026-09-04T06:35:54Z</time>
</trkpt>
<trkpt lat="46.065780000" lon="-72.824590000">
<ele>0</ele>
<time>2026-09-04T06:35:55Z</time>
</trkpt>
<trkpt lat="46.067230000" lon="-72.827740000">
<ele>0</ele>
<time>2026-09-04T06:35:56Z</time>
</trkpt>
<trkpt lat="46.067870000" lon="-72.829150000">
<ele>0</ele>
<time>2026-09-04T06:35:57Z</time>
</trkpt>
<trkpt lat="46.068330000" lon="-72.830200000">
<ele>0</ele>
<time>2026-09-04T06:35:58Z</time>
</trkpt>
<trkpt lat="46.068660000" lon="-72.831030000">
<ele>0</ele>
<time>2026-09-04T06:35:59Z</time>
</trkpt>
<trkpt lat="46.068990000" lon="-72.831960000">
<ele>0</ele>
<time>2026-09-04T06:36:00Z</time>
</trkpt>
<trkpt lat="46.069340000" lon="-72.833130000">
<ele>0</ele>
<time>2026-09-04T06:36:01Z</time>
</trkpt>
<trkpt lat="46.069500000" lon="-72.833880000">
<ele>0</ele>
<time>2026-09-04T06:36:02Z</time>
</trkpt>
<trkpt lat="46.069670000" lon="-72.835000000">
<ele>0</ele>
<time>2026-09-04T06:36:03Z</time>
</trkpt>
<trkpt lat="46.069800000" lon="-72.835550000">
<ele>0</ele>
<time>2026-09-04T06:36:04Z</time>
</trkpt>
<trkpt lat="46.070180000" lon="-72.836650000">
<ele>0</ele>
<time>2026-09-04T06:36:05Z</time>
</trkpt>
<trkpt lat="46.070270000" lon="-72.836880000">
<ele>0</ele>
<time>2026-09-04T06:36:06Z</time>
</trkpt>
<trkpt lat="46.070550000" lon="-72.837670000">
<ele>0</ele>
<time>2026-09-04T06:36:07Z</time>
</trkpt>
<trkpt lat="46.070840000" lon="-72.838520000">
<ele>0</ele>
<time>2026-09-04T06:36:08Z</time>
</trkpt>
<trkpt lat="46.070950000" lon="-72.838850000">
<ele>0</ele>
<time>2026-09-04T06:36:09Z</time>
</trkpt>
<trkpt lat="46.071030000" lon="-72.839270000">
<ele>0</ele>
<time>2026-09-04T06:36:10Z</time>
</trkpt>
<trkpt lat="46.071500000" lon="-72.841720000">
<ele>0</ele>
<time>2026-09-04T06:36:11Z</time>
</trkpt>
<trkpt lat="46.071620000" lon="-72.842360000">
<ele>0</ele>
<time>2026-09-04T06:36:12Z</time>
</trkpt>
<trkpt lat="46.071760000" lon="-72.842960000">
<ele>0</ele>
<time>2026-09-04T06:36:13Z</time>
</trkpt>
<trkpt lat="46.072180000" lon="-72.844280000">
<ele>0</ele>
<time>2026-09-04T06:36:14Z</time>
</trkpt>
<trkpt lat="46.072630000" lon="-72.845910000">
<ele>0</ele>
<time>2026-09-04T06:36:15Z</time>
</trkpt>
<trkpt lat="46.073350000" lon="-72.848760000">
<ele>0</ele>
<time>2026-09-04T06:36:16Z</time>
</trkpt>
<trkpt lat="46.074040000" lon="-72.851430000">
<ele>0</ele>
<time>2026-09-04T06:36:17Z</time>
</trkpt>
<trkpt lat="46.074620000" lon="-72.853610000">
<ele>0</ele>
<time>2026-09-04T06:36:18Z</time>
</trkpt>
<trkpt lat="46.074900000" lon="-72.854620000">
<ele>0</ele>
<time>2026-09-04T06:36:19Z</time>
</trkpt>
<trkpt lat="46.075000000" lon="-72.855270000">
<ele>0</ele>
<time>2026-09-04T06:36:20Z</time>
</trkpt>
<trkpt lat="46.075100000" lon="-72.855990000">
<ele>0</ele>
<time>2026-09-04T06:36:21Z</time>
</trkpt>
<trkpt lat="46.075150000" lon="-72.856640000">
<ele>0</ele>
<time>2026-09-04T06:36:22Z</time>
</trkpt>
<trkpt lat="46.075210000" lon="-72.857090000">
<ele>0</ele>
<time>2026-09-04T06:36:23Z</time>
</trkpt>
<trkpt lat="46.075270000" lon="-72.857500000">
<ele>0</ele>
<time>2026-09-04T06:36:24Z</time>
</trkpt>
<trkpt lat="46.075340000" lon="-72.857760000">
<ele>0</ele>
<time>2026-09-04T06:36:25Z</time>
</trkpt>
<trkpt lat="46.075480000" lon="-72.858160000">
<ele>0</ele>
<time>2026-09-04T06:36:26Z</time>
</trkpt>
<trkpt lat="46.075620000" lon="-72.858390000">
<ele>0</ele>
<time>2026-09-04T06:36:27Z</time>
</trkpt>
<trkpt lat="46.075790000" lon="-72.858650000">
<ele>0</ele>
<time>2026-09-04T06:36:28Z</time>
</trkpt>
<trkpt lat="46.076360000" lon="-72.859410000">
<ele>0</ele>
<time>2026-09-04T06:36:29Z</time>
</trkpt>
<trkpt lat="46.077180000" lon="-72.860420000">
<ele>0</ele>
<time>2026-09-04T06:36:30Z</time>
</trkpt>
<trkpt lat="46.079100000" lon="-72.862770000">
<ele>0</ele>
<time>2026-09-04T06:36:31Z</time>
</trkpt>
<trkpt lat="46.079900000" lon="-72.863750000">
<ele>0</ele>
<time>2026-09-04T06:36:32Z</time>
</trkpt>
<trkpt lat="46.080800000" lon="-72.864610000">
<ele>0</ele>
<time>2026-09-04T06:36:33Z</time>
</trkpt>
<trkpt lat="46.081040000" lon="-72.864840000">
<ele>0</ele>
<time>2026-09-04T06:36:34Z</time>
</trkpt>
<trkpt lat="46.081700000" lon="-72.865610000">
<ele>0</ele>
<time>2026-09-04T06:36:35Z</time>
</trkpt>
<trkpt lat="46.082040000" lon="-72.866240000">
<ele>0</ele>
<time>2026-09-04T06:36:36Z</time>
</trkpt>
<trkpt lat="46.082590000" lon="-72.867570000">
<ele>0</ele>
<time>2026-09-04T06:36:37Z</time>
</trkpt>
<trkpt lat="46.082700000" lon="-72.867790000">
<ele>0</ele>
<time>2026-09-04T06:36:38Z</time>
</trkpt>
<trkpt lat="46.083510000" lon="-72.869500000">
<ele>0</ele>
<time>2026-09-04T06:36:39Z</time>
</trkpt>
<trkpt lat="46.084040000" lon="-72.870630000">
<ele>0</ele>
<time>2026-09-04T06:36:40Z</time>
</trkpt>
<trkpt lat="46.084260000" lon="-72.871020000">
<ele>0</ele>
<time>2026-09-04T06:36:41Z</time>
</trkpt>
<trkpt lat="46.085260000" lon="-72.872850000">
<ele>0</ele>
<time>2026-09-04T06:36:42Z</time>
</trkpt>
<trkpt lat="46.085490000" lon="-72.873250000">
<ele>0</ele>
<time>2026-09-04T06:36:43Z</time>
</trkpt>
<trkpt lat="46.086140000" lon="-72.874490000">
<ele>0</ele>
<time>2026-09-04T06:36:44Z</time>
</trkpt>
<trkpt lat="46.086990000" lon="-72.876160000">
<ele>0</ele>
<time>2026-09-04T06:36:45Z</time>
</trkpt>
<trkpt lat="46.087470000" lon="-72.876940000">
<ele>0</ele>
<time>2026-09-04T06:36:46Z</time>
</trkpt>
<trkpt lat="46.087950000" lon="-72.877710000">
<ele>0</ele>
<time>2026-09-04T06:36:47Z</time>
</trkpt>
<trkpt lat="46.088270000" lon="-72.878240000">
<ele>0</ele>
<time>2026-09-04T06:36:48Z</time>
</trkpt>
<trkpt lat="46.088490000" lon="-72.878740000">
<ele>0</ele>
<time>2026-09-04T06:36:49Z</time>
</trkpt>
<trkpt lat="46.088570000" lon="-72.878970000">
<ele>0</ele>
<time>2026-09-04T06:36:50Z</time>
</trkpt>
<trkpt lat="46.088760000" lon="-72.879560000">
<ele>0</ele>
<time>2026-09-04T06:36:51Z</time>
</trkpt>
<trkpt lat="46.088900000" lon="-72.880180000">
<ele>0</ele>
<time>2026-09-04T06:36:52Z</time>
</trkpt>
<trkpt lat="46.088960000" lon="-72.880150000">
<ele>0</ele>
<time>2026-09-04T06:36:53Z</time>
</trkpt>
<trkpt lat="46.088960000" lon="-72.880150000">
<ele>0</ele>
<time>2026-09-04T06:36:54Z</time>
</trkpt>
<trkpt lat="46.089710000" lon="-72.879850000">
<ele>0</ele>
<time>2026-09-04T06:36:55Z</time>
</trkpt>
<trkpt lat="46.089940000" lon="-72.879850000">
<ele>0</ele>
<time>2026-09-04T06:36:56Z</time>
</trkpt>
<trkpt lat="46.090010000" lon="-72.879890000">
<ele>0</ele>
<time>2026-09-04T06:36:57Z</time>
</trkpt>
<trkpt lat="46.090090000" lon="-72.879980000">
<ele>0</ele>
<time>2026-09-04T06:36:58Z</time>
</trkpt>
<trkpt lat="46.090170000" lon="-72.880110000">
<ele>0</ele>
<time>2026-09-04T06:36:59Z</time>
</trkpt>
<trkpt lat="46.090310000" lon="-72.880690000">
<ele>0</ele>
<time>2026-09-04T06:37:00Z</time>
</trkpt>
<trkpt lat="46.090460000" lon="-72.881430000">
<ele>0</ele>
<time>2026-09-04T06:37:01Z</time>
</trkpt>
<trkpt lat="46.090560000" lon="-72.882200000">
<ele>0</ele>
<time>2026-09-04T06:37:02Z</time>
</trkpt>
<trkpt lat="46.090690000" lon="-72.883250000">
<ele>0</ele>
<time>2026-09-04T06:37:03Z</time>
</trkpt>
<trkpt lat="46.090750000" lon="-72.883460000">
<ele>0</ele>
<time>2026-09-04T06:37:04Z</time>
</trkpt>
<trkpt lat="46.090840000" lon="-72.883640000">
<ele>0</ele>
<time>2026-09-04T06:37:05Z</time>
</trkpt>
<trkpt lat="46.091260000" lon="-72.884190000">
<ele>0</ele>
<time>2026-09-04T06:37:06Z</time>
</trkpt>
<trkpt lat="46.091930000" lon="-72.885060000">
<ele>0</ele>
<time>2026-09-04T06:37:07Z</time>
</trkpt>
<trkpt lat="46.092540000" lon="-72.885850000">
<ele>0</ele>
<time>2026-09-04T06:37:08Z</time>
</trkpt>
<trkpt lat="46.093540000" lon="-72.886890000">
<ele>0</ele>
<time>2026-09-04T06:37:09Z</time>
</trkpt>
<trkpt lat="46.094060000" lon="-72.887290000">
<ele>0</ele>
<time>2026-09-04T06:37:10Z</time>
</trkpt>
<trkpt lat="46.094540000" lon="-72.887640000">
<ele>0</ele>
<time>2026-09-04T06:37:11Z</time>
</trkpt>
<trkpt lat="46.095160000" lon="-72.888020000">
<ele>0</ele>
<time>2026-09-04T06:37:12Z</time>
</trkpt>
<trkpt lat="46.095430000" lon="-72.888380000">
<ele>0</ele>
<time>2026-09-04T06:37:13Z</time>
</trkpt>
<trkpt lat="46.095930000" lon="-72.889200000">
<ele>0</ele>
<time>2026-09-04T06:37:14Z</time>
</trkpt>
<trkpt lat="46.096600000" lon="-72.890420000">
<ele>0</ele>
<time>2026-09-04T06:37:15Z</time>
</trkpt>
<trkpt lat="46.097150000" lon="-72.891450000">
<ele>0</ele>
<time>2026-09-04T06:37:16Z</time>
</trkpt>
<trkpt lat="46.097270000" lon="-72.891690000">
<ele>0</ele>
<time>2026-09-04T06:37:17Z</time>
</trkpt>
<trkpt lat="46.097390000" lon="-72.892140000">
<ele>0</ele>
<time>2026-09-04T06:37:18Z</time>
</trkpt>
<trkpt lat="46.097660000" lon="-72.893100000">
<ele>0</ele>
<time>2026-09-04T06:37:19Z</time>
</trkpt>
<trkpt lat="46.097920000" lon="-72.894070000">
<ele>0</ele>
<time>2026-09-04T06:37:20Z</time>
</trkpt>
<trkpt lat="46.098010000" lon="-72.894570000">
<ele>0</ele>
<time>2026-09-04T06:37:21Z</time>
</trkpt>
<trkpt lat="46.098190000" lon="-72.895580000">
<ele>0</ele>
<time>2026-09-04T06:37:22Z</time>
</trkpt>
<trkpt lat="46.098330000" lon="-72.896590000">
<ele>0</ele>
<time>2026-09-04T06:37:23Z</time>
</trkpt>
<trkpt lat="46.098440000" lon="-72.897360000">
<ele>0</ele>
<time>2026-09-04T06:37:24Z</time>
</trkpt>
<trkpt lat="46.098390000" lon="-72.897360000">
<ele>0</ele>
<time>2026-09-04T06:37:25Z</time>
</trkpt>
<trkpt lat="46.098390000" lon="-72.897360000">
<ele>0</ele>
<time>2026-09-04T06:37:26Z</time>
</trkpt>
<trkpt lat="46.097940000" lon="-72.897380000">
<ele>0</ele>
<time>2026-09-04T06:37:27Z</time>
</trkpt>
<trkpt lat="46.097140000" lon="-72.897550000">
<ele>0</ele>
<time>2026-09-04T06:37:28Z</time>
</trkpt>
<trkpt lat="46.096830000" lon="-72.897700000">
<ele>0</ele>
<time>2026-09-04T06:37:29Z</time>
</trkpt>
<trkpt lat="46.095740000" lon="-72.897960000">
<ele>0</ele>
<time>2026-09-04T06:37:30Z</time>
</trkpt>
<trkpt lat="46.093370000" lon="-72.898490000">
<ele>0</ele>
<time>2026-09-04T06:37:31Z</time>
</trkpt>
<trkpt lat="46.092370000" lon="-72.898710000">
<ele>0</ele>
<time>2026-09-04T06:37:32Z</time>
</trkpt>
<trkpt lat="46.091660000" lon="-72.898870000">
<ele>0</ele>
<time>2026-09-04T06:37:33Z</time>
</trkpt>
<trkpt lat="46.091380000" lon="-72.898930000">
<ele>0</ele>
<time>2026-09-04T06:37:34Z</time>
</trkpt>
<trkpt lat="46.091210000" lon="-72.898930000">
<ele>0</ele>
<time>2026-09-04T06:37:35Z</time>
</trkpt>
<trkpt lat="46.091100000" lon="-72.898900000">
<ele>0</ele>
<time>2026-09-04T06:37:36Z</time>
</trkpt>
<trkpt lat="46.090960000" lon="-72.898810000">
<ele>0</ele>
<time>2026-09-04T06:37:37Z</time>
</trkpt>
<trkpt lat="46.090440000" lon="-72.898390000">
<ele>0</ele>
<time>2026-09-04T06:37:38Z</time>
</trkpt>
<trkpt lat="46.090440000" lon="-72.898390000">
<ele>0</ele>
<time>2026-09-04T06:37:39Z</time>
</trkpt>
<trkpt lat="46.090330000" lon="-72.898330000">
<ele>0</ele>
<time>2026-09-04T06:37:40Z</time>
</trkpt>
<trkpt lat="46.090180000" lon="-72.898340000">
<ele>0</ele>
<time>2026-09-04T06:37:41Z</time>
</trkpt>
<trkpt lat="46.089770000" lon="-72.898500000">
<ele>0</ele>
<time>2026-09-04T06:37:42Z</time>
</trkpt>
<trkpt lat="46.089450000" lon="-72.898630000">
<ele>0</ele>
<time>2026-09-04T06:37:43Z</time>
</trkpt>
<trkpt lat="46.089270000" lon="-72.898680000">
<ele>0</ele>
<time>2026-09-04T06:37:44Z</time>
</trkpt>
<trkpt lat="46.089130000" lon="-72.898660000">
<ele>0</ele>
<time>2026-09-04T06:37:45Z</time>
</trkpt>
<trkpt lat="46.089050000" lon="-72.898640000">
<ele>0</ele>
<time>2026-09-04T06:37:46Z</time>
</trkpt>
<trkpt lat="46.088930000" lon="-72.898520000">
<ele>0</ele>
<time>2026-09-04T06:37:47Z</time>
</trkpt>
<trkpt lat="46.088890000" lon="-72.898390000">
<ele>0</ele>
<time>2026-09-04T06:37:48Z</time>
</trkpt>
<trkpt lat="46.088890000" lon="-72.898390000">
<ele>0</ele>
<time>2026-09-04T06:37:49Z</time>
</trkpt>
<trkpt lat="46.088700000" lon="-72.897820000">
<ele>0</ele>
<time>2026-09-04T06:37:50Z</time>
</trkpt>
<trkpt lat="46.088540000" lon="-72.897460000">
<ele>0</ele>
<time>2026-09-04T06:37:51Z</time>
</trkpt>
<trkpt lat="46.088380000" lon="-72.897190000">
<ele>0</ele>
<time>2026-09-04T06:37:52Z</time>
</trkpt>
<trkpt lat="46.088170000" lon="-72.896780000">
<ele>0</ele>
<time>2026-09-04T06:37:53Z</time>
</trkpt>
<trkpt lat="46.088080000" lon="-72.896550000">
<ele>0</ele>
<time>2026-09-04T06:37:54Z</time>
</trkpt>
<trkpt lat="46.087850000" lon="-72.895690000">
<ele>0</ele>
<time>2026-09-04T06:37:55Z</time>
</trkpt>
<trkpt lat="46.087750000" lon="-72.895160000">
<ele>0</ele>
<time>2026-09-04T06:37:56Z</time>
</trkpt>
<trkpt lat="46.087690000" lon="-72.894570000">
<ele>0</ele>
<time>2026-09-04T06:37:57Z</time>
</trkpt>
<trkpt lat="46.087680000" lon="-72.894140000">
<ele>0</ele>
<time>2026-09-04T06:37:58Z</time>
</trkpt>
<trkpt lat="46.087670000" lon="-72.894040000">
<ele>0</ele>
<time>2026-09-04T06:37:59Z</time>
</trkpt>
<trkpt lat="46.087730000" lon="-72.893530000">
<ele>0</ele>
<time>2026-09-04T06:38:00Z</time>
</trkpt>
<trkpt lat="46.087800000" lon="-72.893290000">
<ele>0</ele>
<time>2026-09-04T06:38:01Z</time>
</trkpt>
<trkpt lat="46.087970000" lon="-72.892730000">
<ele>0</ele>
<time>2026-09-04T06:38:02Z</time>
</trkpt>
<trkpt lat="46.088200000" lon="-72.892230000">
<ele>0</ele>
<time>2026-09-04T06:38:03Z</time>
</trkpt>
<trkpt lat="46.088390000" lon="-72.891970000">
<ele>0</ele>
<time>2026-09-04T06:38:04Z</time>
</trkpt>
<trkpt lat="46.088650000" lon="-72.891680000">
<ele>0</ele>
<time>2026-09-04T06:38:05Z</time>
</trkpt>
<trkpt lat="46.088960000" lon="-72.891330000">
<ele>0</ele>
<time>2026-09-04T06:38:06Z</time>
</trkpt>
<trkpt lat="46.089070000" lon="-72.891170000">
<ele>0</ele>
<time>2026-09-04T06:38:07Z</time>
</trkpt>
<trkpt lat="46.089160000" lon="-72.890960000">
<ele>0</ele>
<time>2026-09-04T06:38:08Z</time>
</trkpt>
<trkpt lat="46.089180000" lon="-72.890670000">
<ele>0</ele>
<time>2026-09-04T06:38:09Z</time>
</trkpt>
<trkpt lat="46.089110000" lon="-72.889180000">
<ele>0</ele>
<time>2026-09-04T06:38:10Z</time>
</trkpt>
<trkpt lat="46.088970000" lon="-72.887650000">
<ele>0</ele>
<time>2026-09-04T06:38:11Z</time>
</trkpt>
<trkpt lat="46.088960000" lon="-72.887200000">
<ele>0</ele>
<time>2026-09-04T06:38:12Z</time>
</trkpt>
<trkpt lat="46.089000000" lon="-72.886870000">
<ele>0</ele>
<time>2026-09-04T06:38:13Z</time>
</trkpt>
<trkpt lat="46.089120000" lon="-72.886280000">
<ele>0</ele>
<time>2026-09-04T06:38:14Z</time>
</trkpt>
<trkpt lat="46.089270000" lon="-72.885920000">
<ele>0</ele>
<time>2026-09-04T06:38:15Z</time>
</trkpt>
<trkpt lat="46.089370000" lon="-72.885710000">
<ele>0</ele>
<time>2026-09-04T06:38:16Z</time>
</trkpt>
<trkpt lat="46.089430000" lon="-72.885500000">
<ele>0</ele>
<time>2026-09-04T06:38:17Z</time>
</trkpt>
<trkpt lat="46.089560000" lon="-72.884980000">
<ele>0</ele>
<time>2026-09-04T06:38:18Z</time>
</trkpt>
<trkpt lat="46.089590000" lon="-72.884730000">
<ele>0</ele>
<time>2026-09-04T06:38:19Z</time>
</trkpt>
<trkpt lat="46.089590000" lon="-72.884470000">
<ele>0</ele>
<time>2026-09-04T06:38:20Z</time>
</trkpt>
<trkpt lat="46.089520000" lon="-72.883960000">
<ele>0</ele>
<time>2026-09-04T06:38:21Z</time>
</trkpt>
<trkpt lat="46.089110000" lon="-72.881440000">
<ele>0</ele>
<time>2026-09-04T06:38:22Z</time>
</trkpt>
<trkpt lat="46.089030000" lon="-72.880930000">
<ele>0</ele>
<time>2026-09-04T06:38:23Z</time>
</trkpt>
<trkpt lat="46.088900000" lon="-72.880180000">
<ele>0</ele>
<time>2026-09-04T06:38:24Z</time>
</trkpt>
<trkpt lat="46.088890000" lon="-72.880140000">
<ele>0</ele>
<time>2026-09-04T06:38:25Z</time>
</trkpt>
<trkpt lat="46.088890000" lon="-72.880140000">
<ele>0</ele>
<time>2026-09-04T06:38:26Z</time>
</trkpt>
<trkpt lat="46.088760000" lon="-72.879560000">
<ele>0</ele>
<time>2026-09-04T06:38:27Z</time>
</trkpt>
<trkpt lat="46.088650000" lon="-72.879210000">
<ele>0</ele>
<time>2026-09-04T06:38:28Z</time>
</trkpt>
<trkpt lat="46.088520000" lon="-72.878800000">
<ele>0</ele>
<time>2026-09-04T06:38:29Z</time>
</trkpt>
<trkpt lat="46.088270000" lon="-72.878240000">
<ele>0</ele>
<time>2026-09-04T06:38:30Z</time>
</trkpt>
<trkpt lat="46.087830000" lon="-72.877520000">
<ele>0</ele>
<time>2026-09-04T06:38:31Z</time>
</trkpt>
<trkpt lat="46.087110000" lon="-72.876360000">
<ele>0</ele>
<time>2026-09-04T06:38:32Z</time>
</trkpt>
<trkpt lat="46.086930000" lon="-72.876060000">
<ele>0</ele>
<time>2026-09-04T06:38:33Z</time>
</trkpt>
<trkpt lat="46.086250000" lon="-72.874700000">
<ele>0</ele>
<time>2026-09-04T06:38:34Z</time>
</trkpt>
<trkpt lat="46.085870000" lon="-72.873950000">
<ele>0</ele>
<time>2026-09-04T06:38:35Z</time>
</trkpt>
<trkpt lat="46.085380000" lon="-72.873050000">
<ele>0</ele>
<time>2026-09-04T06:38:36Z</time>
</trkpt>
<trkpt lat="46.084930000" lon="-72.872240000">
<ele>0</ele>
<time>2026-09-04T06:38:37Z</time>
</trkpt>
<trkpt lat="46.084140000" lon="-72.870820000">
<ele>0</ele>
<time>2026-09-04T06:38:38Z</time>
</trkpt>
<trkpt lat="46.083730000" lon="-72.869970000">
<ele>0</ele>
<time>2026-09-04T06:38:39Z</time>
</trkpt>
<trkpt lat="46.082800000" lon="-72.868000000">
<ele>0</ele>
<time>2026-09-04T06:38:40Z</time>
</trkpt>
<trkpt lat="46.082600000" lon="-72.867590000">
<ele>0</ele>
<time>2026-09-04T06:38:41Z</time>
</trkpt>
<trkpt lat="46.082070000" lon="-72.866310000">
<ele>0</ele>
<time>2026-09-04T06:38:42Z</time>
</trkpt>
<trkpt lat="46.081930000" lon="-72.866040000">
<ele>0</ele>
<time>2026-09-04T06:38:43Z</time>
</trkpt>
<trkpt lat="46.081700000" lon="-72.865610000">
<ele>0</ele>
<time>2026-09-04T06:38:44Z</time>
</trkpt>
<trkpt lat="46.081550000" lon="-72.865420000">
<ele>0</ele>
<time>2026-09-04T06:38:45Z</time>
</trkpt>
<trkpt lat="46.080950000" lon="-72.864760000">
<ele>0</ele>
<time>2026-09-04T06:38:46Z</time>
</trkpt>
<trkpt lat="46.079900000" lon="-72.863750000">
<ele>0</ele>
<time>2026-09-04T06:38:47Z</time>
</trkpt>
<trkpt lat="46.079880000" lon="-72.863830000">
<ele>0</ele>
<time>2026-09-04T06:38:48Z</time>
</trkpt>
<trkpt lat="46.079880000" lon="-72.863830000">
<ele>0</ele>
<time>2026-09-04T06:38:49Z</time>
</trkpt>
<trkpt lat="46.079700000" lon="-72.864380000">
<ele>0</ele>
<time>2026-09-04T06:38:50Z</time>
</trkpt>
<trkpt lat="46.079560000" lon="-72.864650000">
<ele>0</ele>
<time>2026-09-04T06:38:51Z</time>
</trkpt>
<trkpt lat="46.079060000" lon="-72.865400000">
<ele>0</ele>
<time>2026-09-04T06:38:52Z</time>
</trkpt>
<trkpt lat="46.077690000" lon="-72.867470000">
<ele>0</ele>
<time>2026-09-04T06:38:53Z</time>
</trkpt>
<trkpt lat="46.077450000" lon="-72.867850000">
<ele>0</ele>
<time>2026-09-04T06:38:54Z</time>
</trkpt>
<trkpt lat="46.076840000" lon="-72.868760000">
<ele>0</ele>
<time>2026-09-04T06:38:55Z</time>
</trkpt>
<trkpt lat="46.076300000" lon="-72.869470000">
<ele>0</ele>
<time>2026-09-04T06:38:56Z</time>
</trkpt>
<trkpt lat="46.076010000" lon="-72.869690000">
<ele>0</ele>
<time>2026-09-04T06:38:57Z</time>
</trkpt>
<trkpt lat="46.075800000" lon="-72.869810000">
<ele>0</ele>
<time>2026-09-04T06:38:58Z</time>
</trkpt>
<trkpt lat="46.075450000" lon="-72.869910000">
<ele>0</ele>
<time>2026-09-04T06:38:59Z</time>
</trkpt>
<trkpt lat="46.073330000" lon="-72.870520000">
<ele>0</ele>
<time>2026-09-04T06:39:00Z</time>
</trkpt>
<trkpt lat="46.072620000" lon="-72.870650000">
<ele>0</ele>
<time>2026-09-04T06:39:01Z</time>
</trkpt>
<trkpt lat="46.070660000" lon="-72.871000000">
<ele>0</ele>
<time>2026-09-04T06:39:02Z</time>
</trkpt>
<trkpt lat="46.067090000" lon="-72.871630000">
<ele>0</ele>
<time>2026-09-04T06:39:03Z</time>
</trkpt>
<trkpt lat="46.065840000" lon="-72.871820000">
<ele>0</ele>
<time>2026-09-04T06:39:04Z</time>
</trkpt>
<trkpt lat="46.065480000" lon="-72.871870000">
<ele>0</ele>
<time>2026-09-04T06:39:05Z</time>
</trkpt>
<trkpt lat="46.065060000" lon="-72.871920000">
<ele>0</ele>
<time>2026-09-04T06:39:06Z</time>
</trkpt>
<trkpt lat="46.063980000" lon="-72.872210000">
<ele>0</ele>
<time>2026-09-04T06:39:07Z</time>
</trkpt>
<trkpt lat="46.062810000" lon="-72.872650000">
<ele>0</ele>
<time>2026-09-04T06:39:08Z</time>
</trkpt>
<trkpt lat="46.062120000" lon="-72.872910000">
<ele>0</ele>
<time>2026-09-04T06:39:09Z</time>
</trkpt>
<trkpt lat="46.060710000" lon="-72.873320000">
<ele>0</ele>
<time>2026-09-04T06:39:10Z</time>
</trkpt>
<trkpt lat="46.060180000" lon="-72.873460000">
<ele>0</ele>
<time>2026-09-04T06:39:11Z</time>
</trkpt>
<trkpt lat="46.059280000" lon="-72.873700000">
<ele>0</ele>
<time>2026-09-04T06:39:12Z</time>
</trkpt>
<trkpt lat="46.058780000" lon="-72.873950000">
<ele>0</ele>
<time>2026-09-04T06:39:13Z</time>
</trkpt>
<trkpt lat="46.056750000" lon="-72.874990000">
<ele>0</ele>
<time>2026-09-04T06:39:14Z</time>
</trkpt>
<trkpt lat="46.055390000" lon="-72.875690000">
<ele>0</ele>
<time>2026-09-04T06:39:15Z</time>
</trkpt>
<trkpt lat="46.054910000" lon="-72.875950000">
<ele>0</ele>
<time>2026-09-04T06:39:16Z</time>
</trkpt>
<trkpt lat="46.054230000" lon="-72.876380000">
<ele>0</ele>
<time>2026-09-04T06:39:17Z</time>
</trkpt>
<trkpt lat="46.053730000" lon="-72.876690000">
<ele>0</ele>
<time>2026-09-04T06:39:18Z</time>
</trkpt>
<trkpt lat="46.052250000" lon="-72.877620000">
<ele>0</ele>
<time>2026-09-04T06:39:19Z</time>
</trkpt>
<trkpt lat="46.051260000" lon="-72.878240000">
<ele>0</ele>
<time>2026-09-04T06:39:20Z</time>
</trkpt>
<trkpt lat="46.050360000" lon="-72.878830000">
<ele>0</ele>
<time>2026-09-04T06:39:21Z</time>
</trkpt>
<trkpt lat="46.049790000" lon="-72.879220000">
<ele>0</ele>
<time>2026-09-04T06:39:22Z</time>
</trkpt>
<trkpt lat="46.047310000" lon="-72.881310000">
<ele>0</ele>
<time>2026-09-04T06:39:23Z</time>
</trkpt>
<trkpt lat="46.046440000" lon="-72.882040000">
<ele>0</ele>
<time>2026-09-04T06:39:24Z</time>
</trkpt>
<trkpt lat="46.045650000" lon="-72.882850000">
<ele>0</ele>
<time>2026-09-04T06:39:25Z</time>
</trkpt>
<trkpt lat="46.044470000" lon="-72.884050000">
<ele>0</ele>
<time>2026-09-04T06:39:26Z</time>
</trkpt>
<trkpt lat="46.041340000" lon="-72.887540000">
<ele>0</ele>
<time>2026-09-04T06:39:27Z</time>
</trkpt>
<trkpt lat="46.040160000" lon="-72.888970000">
<ele>0</ele>
<time>2026-09-04T06:39:28Z</time>
</trkpt>
<trkpt lat="46.038900000" lon="-72.890670000">
<ele>0</ele>
<time>2026-09-04T06:39:29Z</time>
</trkpt>
<trkpt lat="46.038010000" lon="-72.891890000">
<ele>0</ele>
<time>2026-09-04T06:39:30Z</time>
</trkpt>
<trkpt lat="46.036730000" lon="-72.893940000">
<ele>0</ele>
<time>2026-09-04T06:39:31Z</time>
</trkpt>
<trkpt lat="46.036110000" lon="-72.894960000">
<ele>0</ele>
<time>2026-09-04T06:39:32Z</time>
</trkpt>
<trkpt lat="46.034950000" lon="-72.896900000">
<ele>0</ele>
<time>2026-09-04T06:39:33Z</time>
</trkpt>
<trkpt lat="46.034300000" lon="-72.898400000">
<ele>0</ele>
<time>2026-09-04T06:39:34Z</time>
</trkpt>
<trkpt lat="46.033330000" lon="-72.900680000">
<ele>0</ele>
<time>2026-09-04T06:39:35Z</time>
</trkpt>
<trkpt lat="46.031190000" lon="-72.905680000">
<ele>0</ele>
<time>2026-09-04T06:39:36Z</time>
</trkpt>
<trkpt lat="46.028920000" lon="-72.910970000">
<ele>0</ele>
<time>2026-09-04T06:39:37Z</time>
</trkpt>
<trkpt lat="46.027850000" lon="-72.913470000">
<ele>0</ele>
<time>2026-09-04T06:39:38Z</time>
</trkpt>
<trkpt lat="46.027680000" lon="-72.913920000">
<ele>0</ele>
<time>2026-09-04T06:39:39Z</time>
</trkpt>
<trkpt lat="46.027630000" lon="-72.914270000">
<ele>0</ele>
<time>2026-09-04T06:39:40Z</time>
</trkpt>
<trkpt lat="46.027610000" lon="-72.914600000">
<ele>0</ele>
<time>2026-09-04T06:39:41Z</time>
</trkpt>
<trkpt lat="46.027610000" lon="-72.914720000">
<ele>0</ele>
<time>2026-09-04T06:39:42Z</time>
</trkpt>
<trkpt lat="46.027550000" lon="-72.915060000">
<ele>0</ele>
<time>2026-09-04T06:39:43Z</time>
</trkpt>
<trkpt lat="46.027180000" lon="-72.916100000">
<ele>0</ele>
<time>2026-09-04T06:39:44Z</time>
</trkpt>
<trkpt lat="46.027070000" lon="-72.916360000">
<ele>0</ele>
<time>2026-09-04T06:39:45Z</time>
</trkpt>
<trkpt lat="46.026970000" lon="-72.916740000">
<ele>0</ele>
<time>2026-09-04T06:39:46Z</time>
</trkpt>
<trkpt lat="46.026880000" lon="-72.916650000">
<ele>0</ele>
<time>2026-09-04T06:39:47Z</time>
</trkpt>
<trkpt lat="46.026880000" lon="-72.916650000">
<ele>0</ele>
<time>2026-09-04T06:39:48Z</time>
</trkpt>
<trkpt lat="46.026550000" lon="-72.916360000">
<ele>0</ele>
<time>2026-09-04T06:39:49Z</time>
</trkpt>
<trkpt lat="46.026220000" lon="-72.916100000">
<ele>0</ele>
<time>2026-09-04T06:39:50Z</time>
</trkpt>
<trkpt lat="46.025960000" lon="-72.915870000">
<ele>0</ele>
<time>2026-09-04T06:39:51Z</time>
</trkpt>
<trkpt lat="46.025690000" lon="-72.915560000">
<ele>0</ele>
<time>2026-09-04T06:39:52Z</time>
</trkpt>
<trkpt lat="46.024600000" lon="-72.914090000">
<ele>0</ele>
<time>2026-09-04T06:39:53Z</time>
</trkpt>
<trkpt lat="46.023450000" lon="-72.912780000">
<ele>0</ele>
<time>2026-09-04T06:39:54Z</time>
</trkpt>
<trkpt lat="46.023140000" lon="-72.912360000">
<ele>0</ele>
<time>2026-09-04T06:39:55Z</time>
</trkpt>
<trkpt lat="46.023060000" lon="-72.912300000">
<ele>0</ele>
<time>2026-09-04T06:39:56Z</time>
</trkpt>
<trkpt lat="46.021720000" lon="-72.911230000">
<ele>0</ele>
<time>2026-09-04T06:39:57Z</time>
</trkpt>
<trkpt lat="46.019930000" lon="-72.909690000">
<ele>0</ele>
<time>2026-09-04T06:39:58Z</time>
</trkpt>
<trkpt lat="46.018780000" lon="-72.908960000">
<ele>0</ele>
<time>2026-09-04T06:39:59Z</time>
</trkpt>
<trkpt lat="46.017810000" lon="-72.908500000">
<ele>0</ele>
<time>2026-09-04T06:40:00Z</time>
</trkpt>
<trkpt lat="46.015390000" lon="-72.907700000">
<ele>0</ele>
<time>2026-09-04T06:40:01Z</time>
</trkpt>
<trkpt lat="46.014580000" lon="-72.907500000">
<ele>0</ele>
<time>2026-09-04T06:40:02Z</time>
</trkpt>
<trkpt lat="46.013330000" lon="-72.907320000">
<ele>0</ele>
<time>2026-09-04T06:40:03Z</time>
</trkpt>
<trkpt lat="46.013170000" lon="-72.907300000">
<ele>0</ele>
<time>2026-09-04T06:40:04Z</time>
</trkpt>
<trkpt lat="46.012610000" lon="-72.907230000">
<ele>0</ele>
<time>2026-09-04T06:40:05Z</time>
</trkpt>
<trkpt lat="46.011510000" lon="-72.907100000">
<ele>0</ele>
<time>2026-09-04T06:40:06Z</time>
</trkpt>
<trkpt lat="46.010370000" lon="-72.906900000">
<ele>0</ele>
<time>2026-09-04T06:40:07Z</time>
</trkpt>
<trkpt lat="46.008610000" lon="-72.906400000">
<ele>0</ele>
<time>2026-09-04T06:40:08Z</time>
</trkpt>
<trkpt lat="46.006710000" lon="-72.906180000">
<ele>0</ele>
<time>2026-09-04T06:40:09Z</time>
</trkpt>
<trkpt lat="46.006160000" lon="-72.906080000">
<ele>0</ele>
<time>2026-09-04T06:40:10Z</time>
</trkpt>
<trkpt lat="46.005850000" lon="-72.906110000">
<ele>0</ele>
<time>2026-09-04T06:40:11Z</time>
</trkpt>
<trkpt lat="46.005850000" lon="-72.906110000">
<ele>0</ele>
<time>2026-09-04T06:40:12Z</time>
</trkpt>
<trkpt lat="46.005710000" lon="-72.906080000">
<ele>0</ele>
<time>2026-09-04T06:40:13Z</time>
</trkpt>
<trkpt lat="46.005580000" lon="-72.906070000">
<ele>0</ele>
<time>2026-09-04T06:40:14Z</time>
</trkpt>
<trkpt lat="46.005470000" lon="-72.906080000">
<ele>0</ele>
<time>2026-09-04T06:40:15Z</time>
</trkpt>
<trkpt lat="46.005200000" lon="-72.906140000">
<ele>0</ele>
<time>2026-09-04T06:40:16Z</time>
</trkpt>
<trkpt lat="46.004540000" lon="-72.906350000">
<ele>0</ele>
<time>2026-09-04T06:40:17Z</time>
</trkpt>
<trkpt lat="46.004180000" lon="-72.906420000">
<ele>0</ele>
<time>2026-09-04T06:40:18Z</time>
</trkpt>
<trkpt lat="46.003960000" lon="-72.906350000">
<ele>0</ele>
<time>2026-09-04T06:40:19Z</time>
</trkpt>
<trkpt lat="46.003710000" lon="-72.906230000">
<ele>0</ele>
<time>2026-09-04T06:40:20Z</time>
</trkpt>
<trkpt lat="46.003190000" lon="-72.905990000">
<ele>0</ele>
<time>2026-09-04T06:40:21Z</time>
</trkpt>
<trkpt lat="46.002940000" lon="-72.905870000">
<ele>0</ele>
<time>2026-09-04T06:40:22Z</time>
</trkpt>
<trkpt lat="46.001860000" lon="-72.905220000">
<ele>0</ele>
<time>2026-09-04T06:40:23Z</time>
</trkpt>
<trkpt lat="46.001670000" lon="-72.905040000">
<ele>0</ele>
<time>2026-09-04T06:40:24Z</time>
</trkpt>
<trkpt lat="46.001580000" lon="-72.905070000">
<ele>0</ele>
<time>2026-09-04T06:40:25Z</time>
</trkpt>
<trkpt lat="46.001540000" lon="-72.905040000">
<ele>0</ele>
<time>2026-09-04T06:40:26Z</time>
</trkpt>
<trkpt lat="46.001540000" lon="-72.905040000">
<ele>0</ele>
<time>2026-09-04T06:40:27Z</time>
</trkpt>
<trkpt lat="46.000750000" lon="-72.904570000">
<ele>0</ele>
<time>2026-09-04T06:40:28Z</time>
</trkpt>
<trkpt lat="46.000090000" lon="-72.904160000">
<ele>0</ele>
<time>2026-09-04T06:40:29Z</time>
</trkpt>
<trkpt lat="45.998520000" lon="-72.903260000">
<ele>0</ele>
<time>2026-09-04T06:40:30Z</time>
</trkpt>
<trkpt lat="45.997380000" lon="-72.902590000">
<ele>0</ele>
<time>2026-09-04T06:40:31Z</time>
</trkpt>
<trkpt lat="45.996980000" lon="-72.902280000">
<ele>0</ele>
<time>2026-09-04T06:40:32Z</time>
</trkpt>
<trkpt lat="45.996530000" lon="-72.901820000">
<ele>0</ele>
<time>2026-09-04T06:40:33Z</time>
</trkpt>
<trkpt lat="45.995590000" lon="-72.901120000">
<ele>0</ele>
<time>2026-09-04T06:40:34Z</time>
</trkpt>
<trkpt lat="45.994950000" lon="-72.900640000">
<ele>0</ele>
<time>2026-09-04T06:40:35Z</time>
</trkpt>
<trkpt lat="45.994610000" lon="-72.900470000">
<ele>0</ele>
<time>2026-09-04T06:40:36Z</time>
</trkpt>
<trkpt lat="45.993590000" lon="-72.899940000">
<ele>0</ele>
<time>2026-09-04T06:40:37Z</time>
</trkpt>
<trkpt lat="45.992430000" lon="-72.899240000">
<ele>0</ele>
<time>2026-09-04T06:40:38Z</time>
</trkpt>
<trkpt lat="45.991440000" lon="-72.898640000">
<ele>0</ele>
<time>2026-09-04T06:40:39Z</time>
</trkpt>
<trkpt lat="45.991170000" lon="-72.898470000">
<ele>0</ele>
<time>2026-09-04T06:40:40Z</time>
</trkpt>
<trkpt lat="45.990930000" lon="-72.898370000">
<ele>0</ele>
<time>2026-09-04T06:40:41Z</time>
</trkpt>
<trkpt lat="45.990760000" lon="-72.898310000">
<ele>0</ele>
<time>2026-09-04T06:40:42Z</time>
</trkpt>
<trkpt lat="45.990130000" lon="-72.898160000">
<ele>0</ele>
<time>2026-09-04T06:40:43Z</time>
</trkpt>
<trkpt lat="45.989510000" lon="-72.898070000">
<ele>0</ele>
<time>2026-09-04T06:40:44Z</time>
</trkpt>
<trkpt lat="45.989240000" lon="-72.898030000">
<ele>0</ele>
<time>2026-09-04T06:40:45Z</time>
</trkpt>
<trkpt lat="45.988340000" lon="-72.898010000">
<ele>0</ele>
<time>2026-09-04T06:40:46Z</time>
</trkpt>
<trkpt lat="45.986870000" lon="-72.897990000">
<ele>0</ele>
<time>2026-09-04T06:40:47Z</time>
</trkpt>
<trkpt lat="45.984980000" lon="-72.898100000">
<ele>0</ele>
<time>2026-09-04T06:40:48Z</time>
</trkpt>
<trkpt lat="45.984380000" lon="-72.898130000">
<ele>0</ele>
<time>2026-09-04T06:40:49Z</time>
</trkpt>
<trkpt lat="45.983760000" lon="-72.898200000">
<ele>0</ele>
<time>2026-09-04T06:40:50Z</time>
</trkpt>
<trkpt lat="45.983470000" lon="-72.898210000">
<ele>0</ele>
<time>2026-09-04T06:40:51Z</time>
</trkpt>
<trkpt lat="45.982500000" lon="-72.898320000">
<ele>0</ele>
<time>2026-09-04T06:40:52Z</time>
</trkpt>
<trkpt lat="45.981960000" lon="-72.898390000">
<ele>0</ele>
<time>2026-09-04T06:40:53Z</time>
</trkpt>
<trkpt lat="45.981790000" lon="-72.898390000">
<ele>0</ele>
<time>2026-09-04T06:40:54Z</time>
</trkpt>
<trkpt lat="45.981070000" lon="-72.898370000">
<ele>0</ele>
<time>2026-09-04T06:40:55Z</time>
</trkpt>
<trkpt lat="45.980750000" lon="-72.898350000">
<ele>0</ele>
<time>2026-09-04T06:40:56Z</time>
</trkpt>
<trkpt lat="45.980530000" lon="-72.898290000">
<ele>0</ele>
<time>2026-09-04T06:40:57Z</time>
</trkpt>
<trkpt lat="45.980050000" lon="-72.898170000">
<ele>0</ele>
<time>2026-09-04T06:40:58Z</time>
</trkpt>
<trkpt lat="45.979690000" lon="-72.898010000">
<ele>0</ele>
<time>2026-09-04T06:40:59Z</time>
</trkpt>
<trkpt lat="45.979160000" lon="-72.897690000">
<ele>0</ele>
<time>2026-09-04T06:41:00Z</time>
</trkpt>
<trkpt lat="45.977670000" lon="-72.896790000">
<ele>0</ele>
<time>2026-09-04T06:41:01Z</time>
</trkpt>
<trkpt lat="45.977170000" lon="-72.896480000">
<ele>0</ele>
<time>2026-09-04T06:41:02Z</time>
</trkpt>
<trkpt lat="45.976630000" lon="-72.896120000">
<ele>0</ele>
<time>2026-09-04T06:41:03Z</time>
</trkpt>
<trkpt lat="45.976660000" lon="-72.896030000">
<ele>0</ele>
<time>2026-09-04T06:41:04Z</time>
</trkpt>
<trkpt lat="45.976660000" lon="-72.896030000">
<ele>0</ele>
<time>2026-09-04T06:41:05Z</time>
</trkpt>
<trkpt lat="45.977080000" lon="-72.894830000">
<ele>0</ele>
<time>2026-09-04T06:41:06Z</time>
</trkpt>
<trkpt lat="45.977150000" lon="-72.894470000">
<ele>0</ele>
<time>2026-09-04T06:41:07Z</time>
</trkpt>
<trkpt lat="45.977190000" lon="-72.894000000">
<ele>0</ele>
<time>2026-09-04T06:41:08Z</time>
</trkpt>
<trkpt lat="45.977200000" lon="-72.893530000">
<ele>0</ele>
<time>2026-09-04T06:41:09Z</time>
</trkpt>
<trkpt lat="45.977160000" lon="-72.893190000">
<ele>0</ele>
<time>2026-09-04T06:41:10Z</time>
</trkpt>
<trkpt lat="45.977110000" lon="-72.892940000">
<ele>0</ele>
<time>2026-09-04T06:41:11Z</time>
</trkpt>
<trkpt lat="45.977010000" lon="-72.892610000">
<ele>0</ele>
<time>2026-09-04T06:41:12Z</time>
</trkpt>
<trkpt lat="45.976870000" lon="-72.892290000">
<ele>0</ele>
<time>2026-09-04T06:41:13Z</time>
</trkpt>
<trkpt lat="45.976750000" lon="-72.892090000">
<ele>0</ele>
<time>2026-09-04T06:41:14Z</time>
</trkpt>
<trkpt lat="45.976500000" lon="-72.891720000">
<ele>0</ele>
<time>2026-09-04T06:41:15Z</time>
</trkpt>
<trkpt lat="45.976360000" lon="-72.891560000">
<ele>0</ele>
<time>2026-09-04T06:41:16Z</time>
</trkpt>
<trkpt lat="45.975470000" lon="-72.890650000">
<ele>0</ele>
<time>2026-09-04T06:41:17Z</time>
</trkpt>
<trkpt lat="45.975120000" lon="-72.890200000">
<ele>0</ele>
<time>2026-09-04T06:41:18Z</time>
</trkpt>
<trkpt lat="45.974650000" lon="-72.889470000">
<ele>0</ele>
<time>2026-09-04T06:41:19Z</time>
</trkpt>
<trkpt lat="45.974380000" lon="-72.888950000">
<ele>0</ele>
<time>2026-09-04T06:41:20Z</time>
</trkpt>
<trkpt lat="45.974040000" lon="-72.888050000">
<ele>0</ele>
<time>2026-09-04T06:41:21Z</time>
</trkpt>
<trkpt lat="45.973370000" lon="-72.885920000">
<ele>0</ele>
<time>2026-09-04T06:41:22Z</time>
</trkpt>
<trkpt lat="45.972480000" lon="-72.883060000">
<ele>0</ele>
<time>2026-09-04T06:41:23Z</time>
</trkpt>
<trkpt lat="45.971970000" lon="-72.881400000">
<ele>0</ele>
<time>2026-09-04T06:41:24Z</time>
</trkpt>
<trkpt lat="45.971760000" lon="-72.880730000">
<ele>0</ele>
<time>2026-09-04T06:41:25Z</time>
</trkpt>
<trkpt lat="45.971400000" lon="-72.879830000">
<ele>0</ele>
<time>2026-09-04T06:41:26Z</time>
</trkpt>
<trkpt lat="45.970900000" lon="-72.878740000">
<ele>0</ele>
<time>2026-09-04T06:41:27Z</time>
</trkpt>
<trkpt lat="45.970580000" lon="-72.878130000">
<ele>0</ele>
<time>2026-09-04T06:41:28Z</time>
</trkpt>
<trkpt lat="45.969910000" lon="-72.876900000">
<ele>0</ele>
<time>2026-09-04T06:41:29Z</time>
</trkpt>
<trkpt lat="45.969350000" lon="-72.875900000">
<ele>0</ele>
<time>2026-09-04T06:41:30Z</time>
</trkpt>
<trkpt lat="45.969100000" lon="-72.875520000">
<ele>0</ele>
<time>2026-09-04T06:41:31Z</time>
</trkpt>
<trkpt lat="45.967480000" lon="-72.873100000">
<ele>0</ele>
<time>2026-09-04T06:41:32Z</time>
</trkpt>
<trkpt lat="45.965880000" lon="-72.870650000">
<ele>0</ele>
<time>2026-09-04T06:41:33Z</time>
</trkpt>
<trkpt lat="45.964770000" lon="-72.869020000">
<ele>0</ele>
<time>2026-09-04T06:41:34Z</time>
</trkpt>
<trkpt lat="45.964630000" lon="-72.868810000">
<ele>0</ele>
<time>2026-09-04T06:41:35Z</time>
</trkpt>
<trkpt lat="45.964300000" lon="-72.868520000">
<ele>0</ele>
<time>2026-09-04T06:41:36Z</time>
</trkpt>
<trkpt lat="45.963980000" lon="-72.868300000">
<ele>0</ele>
<time>2026-09-04T06:41:37Z</time>
</trkpt>
<trkpt lat="45.963570000" lon="-72.868070000">
<ele>0</ele>
<time>2026-09-04T06:41:38Z</time>
</trkpt>
<trkpt lat="45.963240000" lon="-72.867940000">
<ele>0</ele>
<time>2026-09-04T06:41:39Z</time>
</trkpt>
<trkpt lat="45.962610000" lon="-72.867860000">
<ele>0</ele>
<time>2026-09-04T06:41:40Z</time>
</trkpt>
<trkpt lat="45.961740000" lon="-72.868000000">
<ele>0</ele>
<time>2026-09-04T06:41:41Z</time>
</trkpt>
<trkpt lat="45.961510000" lon="-72.867980000">
<ele>0</ele>
<time>2026-09-04T06:41:42Z</time>
</trkpt>
<trkpt lat="45.961150000" lon="-72.867930000">
<ele>0</ele>
<time>2026-09-04T06:41:43Z</time>
</trkpt>
<trkpt lat="45.960860000" lon="-72.867860000">
<ele>0</ele>
<time>2026-09-04T06:41:44Z</time>
</trkpt>
<trkpt lat="45.960690000" lon="-72.867780000">
<ele>0</ele>
<time>2026-09-04T06:41:45Z</time>
</trkpt>
<trkpt lat="45.960460000" lon="-72.867660000">
<ele>0</ele>
<time>2026-09-04T06:41:46Z</time>
</trkpt>
<trkpt lat="45.960300000" lon="-72.867540000">
<ele>0</ele>
<time>2026-09-04T06:41:47Z</time>
</trkpt>
<trkpt lat="45.960010000" lon="-72.867250000">
<ele>0</ele>
<time>2026-09-04T06:41:48Z</time>
</trkpt>
<trkpt lat="45.959820000" lon="-72.867040000">
<ele>0</ele>
<time>2026-09-04T06:41:49Z</time>
</trkpt>
<trkpt lat="45.959350000" lon="-72.866370000">
<ele>0</ele>
<time>2026-09-04T06:41:50Z</time>
</trkpt>
<trkpt lat="45.958720000" lon="-72.865450000">
<ele>0</ele>
<time>2026-09-04T06:41:51Z</time>
</trkpt>
<trkpt lat="45.958370000" lon="-72.864930000">
<ele>0</ele>
<time>2026-09-04T06:41:52Z</time>
</trkpt>
<trkpt lat="45.958110000" lon="-72.864490000">
<ele>0</ele>
<time>2026-09-04T06:41:53Z</time>
</trkpt>
<trkpt lat="45.957810000" lon="-72.863920000">
<ele>0</ele>
<time>2026-09-04T06:41:54Z</time>
</trkpt>
<trkpt lat="45.957530000" lon="-72.863340000">
<ele>0</ele>
<time>2026-09-04T06:41:55Z</time>
</trkpt>
<trkpt lat="45.956860000" lon="-72.861960000">
<ele>0</ele>
<time>2026-09-04T06:41:56Z</time>
</trkpt>
<trkpt lat="45.956520000" lon="-72.861240000">
<ele>0</ele>
<time>2026-09-04T06:41:57Z</time>
</trkpt>
<trkpt lat="45.956240000" lon="-72.860590000">
<ele>0</ele>
<time>2026-09-04T06:41:58Z</time>
</trkpt>
<trkpt lat="45.955840000" lon="-72.859530000">
<ele>0</ele>
<time>2026-09-04T06:41:59Z</time>
</trkpt>
<trkpt lat="45.955380000" lon="-72.858350000">
<ele>0</ele>
<time>2026-09-04T06:42:00Z</time>
</trkpt>
<trkpt lat="45.955150000" lon="-72.857660000">
<ele>0</ele>
<time>2026-09-04T06:42:01Z</time>
</trkpt>
<trkpt lat="45.955220000" lon="-72.857600000">
<ele>0</ele>
<time>2026-09-04T06:42:02Z</time>
</trkpt>
<trkpt lat="45.955220000" lon="-72.857600000">
<ele>0</ele>
<time>2026-09-04T06:42:03Z</time>
</trkpt>
<trkpt lat="45.955350000" lon="-72.857480000">
<ele>0</ele>
<time>2026-09-04T06:42:04Z</time>
</trkpt>
<trkpt lat="45.955640000" lon="-72.857130000">
<ele>0</ele>
<time>2026-09-04T06:42:05Z</time>
</trkpt>
<trkpt lat="45.956770000" lon="-72.855460000">
<ele>0</ele>
<time>2026-09-04T06:42:06Z</time>
</trkpt>
<trkpt lat="45.957620000" lon="-72.854180000">
<ele>0</ele>
<time>2026-09-04T06:42:07Z</time>
</trkpt>
<trkpt lat="45.958260000" lon="-72.853240000">
<ele>0</ele>
<time>2026-09-04T06:42:08Z</time>
</trkpt>
<trkpt lat="45.958890000" lon="-72.852220000">
<ele>0</ele>
<time>2026-09-04T06:42:09Z</time>
</trkpt>
<trkpt lat="45.959110000" lon="-72.851900000">
<ele>0</ele>
<time>2026-09-04T06:42:10Z</time>
</trkpt>
<trkpt lat="45.959290000" lon="-72.851630000">
<ele>0</ele>
<time>2026-09-04T06:42:12Z</time>
</trkpt>
<trkpt lat="45.961350000" lon="-72.848630000">
<ele>0</ele>
<time>2026-09-04T06:42:13Z</time>
</trkpt>
<trkpt lat="45.962750000" lon="-72.846590000">
<ele>0</ele>
<time>2026-09-04T06:42:14Z</time>
</trkpt>
<trkpt lat="45.966790000" lon="-72.840720000">
<ele>0</ele>
<time>2026-09-04T06:42:15Z</time>
</trkpt>
<trkpt lat="45.966850000" lon="-72.840790000">
<ele>0</ele>
<time>2026-09-04T06:42:16Z</time>
</trkpt>
<trkpt lat="45.966850000" lon="-72.840790000">
<ele>0</ele>
<time>2026-09-04T06:42:17Z</time>
</trkpt>
<trkpt lat="45.968580000" lon="-72.843190000">
<ele>0</ele>
<time>2026-09-04T06:42:18Z</time>
</trkpt>
<trkpt lat="45.969500000" lon="-72.844440000">
<ele>0</ele>
<time>2026-09-04T06:42:19Z</time>
</trkpt>
<trkpt lat="45.971330000" lon="-72.846930000">
<ele>0</ele>
<time>2026-09-04T06:42:20Z</time>
</trkpt>
<trkpt lat="45.972100000" lon="-72.848010000">
<ele>0</ele>
<time>2026-09-04T06:42:21Z</time>
</trkpt>
<trkpt lat="45.973650000" lon="-72.850180000">
<ele>0</ele>
<time>2026-09-04T06:42:22Z</time>
</trkpt>
<trkpt lat="45.974350000" lon="-72.851170000">
<ele>0</ele>
<time>2026-09-04T06:42:23Z</time>
</trkpt>
<trkpt lat="45.974630000" lon="-72.851580000">
<ele>0</ele>
<time>2026-09-04T06:42:24Z</time>
</trkpt>
<trkpt lat="45.975180000" lon="-72.852330000">
<ele>0</ele>
<time>2026-09-04T06:42:25Z</time>
</trkpt>
<trkpt lat="45.975500000" lon="-72.852700000">
<ele>0</ele>
<time>2026-09-04T06:42:26Z</time>
</trkpt>
<trkpt lat="45.975770000" lon="-72.852950000">
<ele>0</ele>
<time>2026-09-04T06:42:27Z</time>
</trkpt>
<trkpt lat="45.975940000" lon="-72.853090000">
<ele>0</ele>
<time>2026-09-04T06:42:28Z</time>
</trkpt>
<trkpt lat="45.976270000" lon="-72.853320000">
<ele>0</ele>
<time>2026-09-04T06:42:29Z</time>
</trkpt>
<trkpt lat="45.976670000" lon="-72.853530000">
<ele>0</ele>
<time>2026-09-04T06:42:30Z</time>
</trkpt>
<trkpt lat="45.977060000" lon="-72.853670000">
<ele>0</ele>
<time>2026-09-04T06:42:31Z</time>
</trkpt>
<trkpt lat="45.977380000" lon="-72.853740000">
<ele>0</ele>
<time>2026-09-04T06:42:32Z</time>
</trkpt>
<trkpt lat="45.978720000" lon="-72.853940000">
<ele>0</ele>
<time>2026-09-04T06:42:33Z</time>
</trkpt>
<trkpt lat="45.979580000" lon="-72.854080000">
<ele>0</ele>
<time>2026-09-04T06:42:34Z</time>
</trkpt>
<trkpt lat="45.979820000" lon="-72.854150000">
<ele>0</ele>
<time>2026-09-04T06:42:35Z</time>
</trkpt>
<trkpt lat="45.980170000" lon="-72.854270000">
<ele>0</ele>
<time>2026-09-04T06:42:36Z</time>
</trkpt>
<trkpt lat="45.980320000" lon="-72.854340000">
<ele>0</ele>
<time>2026-09-04T06:42:37Z</time>
</trkpt>
<trkpt lat="45.980950000" lon="-72.854700000">
<ele>0</ele>
<time>2026-09-04T06:42:38Z</time>
</trkpt>
<trkpt lat="45.981800000" lon="-72.855250000">
<ele>0</ele>
<time>2026-09-04T06:42:39Z</time>
</trkpt>
<trkpt lat="45.982950000" lon="-72.856000000">
<ele>0</ele>
<time>2026-09-04T06:42:40Z</time>
</trkpt>
<trkpt lat="45.989910000" lon="-72.860500000">
<ele>0</ele>
<time>2026-09-04T06:42:41Z</time>
</trkpt>
<trkpt lat="45.992980000" lon="-72.862490000">
<ele>0</ele>
<time>2026-09-04T06:42:42Z</time>
</trkpt>
<trkpt lat="45.993210000" lon="-72.862630000">
<ele>0</ele>
<time>2026-09-04T06:42:43Z</time>
</trkpt>
<trkpt lat="45.993260000" lon="-72.862520000">
<ele>0</ele>
<time>2026-09-04T06:42:44Z</time>
</trkpt>
<trkpt lat="45.993260000" lon="-72.862520000">
<ele>0</ele>
<time>2026-09-04T06:42:45Z</time>
</trkpt>
<trkpt lat="46.001290000" lon="-72.846120000">
<ele>0</ele>
<time>2026-09-04T06:42:46Z</time>
</trkpt>
<trkpt lat="46.004930000" lon="-72.838650000">
<ele>0</ele>
<time>2026-09-04T06:42:47Z</time>
</trkpt>
<trkpt lat="46.005010000" lon="-72.838760000">
<ele>0</ele>
<time>2026-09-04T06:42:48Z</time>
</trkpt>
<trkpt lat="46.005010000" lon="-72.838760000">
<ele>0</ele>
<time>2026-09-04T06:42:49Z</time>
</trkpt>
<trkpt lat="46.005620000" lon="-72.839630000">
<ele>0</ele>
<time>2026-09-04T06:42:50Z</time>
</trkpt>
<trkpt lat="46.005670000" lon="-72.839560000">
<ele>0</ele>
<time>2026-09-04T06:42:51Z</time>
</trkpt>
<trkpt lat="46.005670000" lon="-72.839560000">
<ele>0</ele>
<time>2026-09-04T06:42:52Z</time>
</trkpt>
<trkpt lat="46.007350000" lon="-72.837000000">
<ele>0</ele>
<time>2026-09-04T06:42:53Z</time>
</trkpt>
<trkpt lat="46.007720000" lon="-72.836440000">
<ele>0</ele>
<time>2026-09-04T06:42:54Z</time>
</trkpt>
<trkpt lat="46.008850000" lon="-72.834770000">
<ele>0</ele>
<time>2026-09-04T06:42:55Z</time>
</trkpt>
<trkpt lat="46.012510000" lon="-72.829450000">
<ele>0</ele>
<time>2026-09-04T06:42:56Z</time>
</trkpt>
<trkpt lat="46.012700000" lon="-72.828950000">
<ele>0</ele>
<time>2026-09-04T06:42:57Z</time>
</trkpt>
<trkpt lat="46.012760000" lon="-72.828690000">
<ele>0</ele>
<time>2026-09-04T06:42:58Z</time>
</trkpt>
<trkpt lat="46.012760000" lon="-72.828230000">
<ele>0</ele>
<time>2026-09-04T06:42:59Z</time>
</trkpt>
<trkpt lat="46.012740000" lon="-72.823760000">
<ele>0</ele>
<time>2026-09-04T06:43:00Z</time>
</trkpt>
<trkpt lat="46.012720000" lon="-72.823560000">
<ele>0</ele>
<time>2026-09-04T06:43:01Z</time>
</trkpt>
<trkpt lat="46.012550000" lon="-72.823090000">
<ele>0</ele>
<time>2026-09-04T06:43:02Z</time>
</trkpt>
<trkpt lat="46.012320000" lon="-72.822440000">
<ele>0</ele>
<time>2026-09-04T06:43:03Z</time>
</trkpt>
<trkpt lat="46.012220000" lon="-72.821900000">
<ele>0</ele>
<time>2026-09-04T06:43:04Z</time>
</trkpt>
<trkpt lat="46.012170000" lon="-72.821580000">
<ele>0</ele>
<time>2026-09-04T06:43:05Z</time>
</trkpt>
<trkpt lat="46.012180000" lon="-72.821150000">
<ele>0</ele>
<time>2026-09-04T06:43:06Z</time>
</trkpt>
<trkpt lat="46.012190000" lon="-72.820620000">
<ele>0</ele>
<time>2026-09-04T06:43:07Z</time>
</trkpt>
<trkpt lat="46.012210000" lon="-72.820040000">
<ele>0</ele>
<time>2026-09-04T06:43:08Z</time>
</trkpt>
<trkpt lat="46.012170000" lon="-72.819750000">
<ele>0</ele>
<time>2026-09-04T06:43:09Z</time>
</trkpt>
<trkpt lat="46.012090000" lon="-72.819630000">
<ele>0</ele>
<time>2026-09-04T06:43:10Z</time>
</trkpt>
<trkpt lat="46.011210000" lon="-72.818340000">
<ele>0</ele>
<time>2026-09-04T06:43:11Z</time>
</trkpt>
<trkpt lat="46.010830000" lon="-72.817780000">
<ele>0</ele>
<time>2026-09-04T06:43:12Z</time>
</trkpt>
<trkpt lat="46.010590000" lon="-72.817280000">
<ele>0</ele>
<time>2026-09-04T06:43:13Z</time>
</trkpt>
<trkpt lat="46.009640000" lon="-72.814280000">
<ele>0</ele>
<time>2026-09-04T06:43:14Z</time>
</trkpt>
<trkpt lat="46.009320000" lon="-72.813380000">
<ele>0</ele>
<time>2026-09-04T06:43:15Z</time>
</trkpt>
<trkpt lat="46.009170000" lon="-72.813040000">
<ele>0</ele>
<time>2026-09-04T06:43:16Z</time>
</trkpt>
<trkpt lat="46.008840000" lon="-72.812620000">
<ele>0</ele>
<time>2026-09-04T06:43:17Z</time>
</trkpt>
<trkpt lat="46.008330000" lon="-72.811970000">
<ele>0</ele>
<time>2026-09-04T06:43:18Z</time>
</trkpt>
<trkpt lat="46.008190000" lon="-72.811740000">
<ele>0</ele>
<time>2026-09-04T06:43:19Z</time>
</trkpt>
<trkpt lat="46.008060000" lon="-72.811540000">
<ele>0</ele>
<time>2026-09-04T06:43:20Z</time>
</trkpt>
<trkpt lat="46.007480000" lon="-72.810560000">
<ele>0</ele>
<time>2026-09-04T06:43:21Z</time>
</trkpt>
<trkpt lat="46.007280000" lon="-72.810220000">
<ele>0</ele>
<time>2026-09-04T06:43:22Z</time>
</trkpt>
<trkpt lat="46.006860000" lon="-72.809690000">
<ele>0</ele>
<time>2026-09-04T06:43:23Z</time>
</trkpt>
<trkpt lat="46.006380000" lon="-72.809230000">
<ele>0</ele>
<time>2026-09-04T06:43:24Z</time>
</trkpt>
<trkpt lat="46.005470000" lon="-72.808350000">
<ele>0</ele>
<time>2026-09-04T06:43:25Z</time>
</trkpt>
<trkpt lat="46.005470000" lon="-72.808250000">
<ele>0</ele>
<time>2026-09-04T06:43:26Z</time>
</trkpt>
<trkpt lat="46.005470000" lon="-72.808250000">
<ele>0</ele>
<time>2026-09-04T06:43:27Z</time>
</trkpt>
<trkpt lat="46.005240000" lon="-72.803070000">
<ele>0</ele>
<time>2026-09-04T06:43:28Z</time>
</trkpt>
<trkpt lat="46.004530000" lon="-72.801260000">
<ele>0</ele>
<time>2026-09-04T06:43:29Z</time>
</trkpt>
<trkpt lat="46.002300000" lon="-72.795590000">
<ele>0</ele>
<time>2026-09-04T06:43:30Z</time>
</trkpt>
<trkpt lat="46.001860000" lon="-72.794470000">
<ele>0</ele>
<time>2026-09-04T06:43:31Z</time>
</trkpt>
<trkpt lat="46.001680000" lon="-72.793860000">
<ele>0</ele>
<time>2026-09-04T06:43:32Z</time>
</trkpt>
<trkpt lat="46.001630000" lon="-72.792970000">
<ele>0</ele>
<time>2026-09-04T06:43:33Z</time>
</trkpt>
<trkpt lat="46.001490000" lon="-72.790650000">
<ele>0</ele>
<time>2026-09-04T06:43:34Z</time>
</trkpt>
<trkpt lat="46.001330000" lon="-72.787910000">
<ele>0</ele>
<time>2026-09-04T06:43:35Z</time>
</trkpt>
<trkpt lat="46.001070000" lon="-72.782900000">
<ele>0</ele>
<time>2026-09-04T06:43:36Z</time>
</trkpt>
<trkpt lat="46.000960000" lon="-72.780840000">
<ele>0</ele>
<time>2026-09-04T06:43:37Z</time>
</trkpt>
<trkpt lat="46.000730000" lon="-72.777800000">
<ele>0</ele>
<time>2026-09-04T06:43:38Z</time>
</trkpt>
<trkpt lat="46.000710000" lon="-72.777640000">
<ele>0</ele>
<time>2026-09-04T06:43:39Z</time>
</trkpt>
<trkpt lat="46.000670000" lon="-72.777560000">
<ele>0</ele>
<time>2026-09-04T06:43:40Z</time>
</trkpt>
<trkpt lat="46.000560000" lon="-72.777360000">
<ele>0</ele>
<time>2026-09-04T06:43:41Z</time>
</trkpt>
<trkpt lat="46.000430000" lon="-72.777180000">
<ele>0</ele>
<time>2026-09-04T06:43:42Z</time>
</trkpt>
<trkpt lat="46.000030000" lon="-72.776630000">
<ele>0</ele>
<time>2026-09-04T06:43:43Z</time>
</trkpt>
<trkpt lat="45.999790000" lon="-72.776280000">
<ele>0</ele>
<time>2026-09-04T06:43:44Z</time>
</trkpt>
<trkpt lat="45.999280000" lon="-72.775540000">
<ele>0</ele>
<time>2026-09-04T06:43:45Z</time>
</trkpt>
<trkpt lat="45.998760000" lon="-72.774830000">
<ele>0</ele>
<time>2026-09-04T06:43:46Z</time>
</trkpt>
<trkpt lat="45.998100000" lon="-72.773950000">
<ele>0</ele>
<time>2026-09-04T06:43:47Z</time>
</trkpt>
<trkpt lat="45.997590000" lon="-72.773220000">
<ele>0</ele>
<time>2026-09-04T06:43:48Z</time>
</trkpt>
<trkpt lat="45.995810000" lon="-72.770710000">
<ele>0</ele>
<time>2026-09-04T06:43:49Z</time>
</trkpt>
<trkpt lat="45.993110000" lon="-72.766910000">
<ele>0</ele>
<time>2026-09-04T06:43:50Z</time>
</trkpt>
<trkpt lat="45.991320000" lon="-72.764400000">
<ele>0</ele>
<time>2026-09-04T06:43:51Z</time>
</trkpt>
<trkpt lat="45.991380000" lon="-72.764310000">
<ele>0</ele>
<time>2026-09-04T06:43:52Z</time>
</trkpt>
<trkpt lat="45.991380000" lon="-72.764310000">
<ele>0</ele>
<time>2026-09-04T06:43:53Z</time>
</trkpt>
<trkpt lat="45.997140000" lon="-72.755930000">
<ele>0</ele>
<time>2026-09-04T06:43:54Z</time>
</trkpt>
<trkpt lat="45.999770000" lon="-72.752080000">
<ele>0</ele>
<time>2026-09-04T06:43:55Z</time>
</trkpt>
<trkpt lat="46.001450000" lon="-72.749730000">
<ele>0</ele>
<time>2026-09-04T06:43:56Z</time>
</trkpt>
<trkpt lat="46.002540000" lon="-72.748280000">
<ele>0</ele>
<time>2026-09-04T06:43:57Z</time>
</trkpt>
<trkpt lat="46.003170000" lon="-72.747370000">
<ele>0</ele>
<time>2026-09-04T06:43:58Z</time>
</trkpt>
<trkpt lat="46.003870000" lon="-72.746390000">
<ele>0</ele>
<time>2026-09-04T06:43:59Z</time>
</trkpt>
<trkpt lat="46.004830000" lon="-72.744960000">
<ele>0</ele>
<time>2026-09-04T06:44:00Z</time>
</trkpt>
<trkpt lat="46.005820000" lon="-72.743500000">
<ele>0</ele>
<time>2026-09-04T06:44:01Z</time>
</trkpt>
<trkpt lat="46.006730000" lon="-72.742150000">
<ele>0</ele>
<time>2026-09-04T06:44:02Z</time>
</trkpt>
<trkpt lat="46.008980000" lon="-72.738800000">
<ele>0</ele>
<time>2026-09-04T06:44:03Z</time>
</trkpt>
<trkpt lat="46.009890000" lon="-72.737550000">
<ele>0</ele>
<time>2026-09-04T06:44:04Z</time>
</trkpt>
<trkpt lat="46.010900000" lon="-72.736070000">
<ele>0</ele>
<time>2026-09-04T06:44:05Z</time>
</trkpt>
<trkpt lat="46.011860000" lon="-72.734660000">
<ele>0</ele>
<time>2026-09-04T06:44:06Z</time>
</trkpt>
<trkpt lat="46.012410000" lon="-72.733770000">
<ele>0</ele>
<time>2026-09-04T06:44:07Z</time>
</trkpt>
<trkpt lat="46.013260000" lon="-72.732540000">
<ele>0</ele>
<time>2026-09-04T06:44:08Z</time>
</trkpt>
<trkpt lat="46.013640000" lon="-72.731980000">
<ele>0</ele>
<time>2026-09-04T06:44:09Z</time>
</trkpt>
<trkpt lat="46.014410000" lon="-72.730890000">
<ele>0</ele>
<time>2026-09-04T06:44:10Z</time>
</trkpt>
<trkpt lat="46.014780000" lon="-72.730390000">
<ele>0</ele>
<time>2026-09-04T06:44:11Z</time>
</trkpt>
<trkpt lat="46.015110000" lon="-72.729830000">
<ele>0</ele>
<time>2026-09-04T06:44:12Z</time>
</trkpt>
<trkpt lat="46.015550000" lon="-72.729250000">
<ele>0</ele>
<time>2026-09-04T06:44:13Z</time>
</trkpt>
<trkpt lat="46.016130000" lon="-72.728530000">
<ele>0</ele>
<time>2026-09-04T06:44:14Z</time>
</trkpt>
<trkpt lat="46.016960000" lon="-72.727640000">
<ele>0</ele>
<time>2026-09-04T06:44:15Z</time>
</trkpt>
<trkpt lat="46.018400000" lon="-72.726090000">
<ele>0</ele>
<time>2026-09-04T06:44:16Z</time>
</trkpt>
<trkpt lat="46.019830000" lon="-72.724530000">
<ele>0</ele>
<time>2026-09-04T06:44:17Z</time>
</trkpt>
<trkpt lat="46.020270000" lon="-72.724070000">
<ele>0</ele>
<time>2026-09-04T06:44:18Z</time>
</trkpt>
<trkpt lat="46.021290000" lon="-72.723020000">
<ele>0</ele>
<time>2026-09-04T06:44:19Z</time>
</trkpt>
<trkpt lat="46.022280000" lon="-72.721970000">
<ele>0</ele>
<time>2026-09-04T06:44:20Z</time>
</trkpt>
<trkpt lat="46.022620000" lon="-72.721550000">
<ele>0</ele>
<time>2026-09-04T06:44:21Z</time>
</trkpt>
<trkpt lat="46.022870000" lon="-72.721310000">
<ele>0</ele>
<time>2026-09-04T06:44:22Z</time>
</trkpt>
<trkpt lat="46.022920000" lon="-72.721380000">
<ele>0</ele>
<time>2026-09-04T06:44:23Z</time>
</trkpt>
<trkpt lat="46.022920000" lon="-72.721380000">
<ele>0</ele>
<time>2026-09-04T06:44:24Z</time>
</trkpt>
<trkpt lat="46.023320000" lon="-72.722080000">
<ele>0</ele>
<time>2026-09-04T06:44:25Z</time>
</trkpt>
<trkpt lat="46.023570000" lon="-72.722470000">
<ele>0</ele>
<time>2026-09-04T06:44:26Z</time>
</trkpt>
<trkpt lat="46.024170000" lon="-72.723420000">
<ele>0</ele>
<time>2026-09-04T06:44:27Z</time>
</trkpt>
<trkpt lat="46.025020000" lon="-72.724760000">
<ele>0</ele>
<time>2026-09-04T06:44:28Z</time>
</trkpt>
<trkpt lat="46.025250000" lon="-72.725160000">
<ele>0</ele>
<time>2026-09-04T06:44:29Z</time>
</trkpt>
<trkpt lat="46.025630000" lon="-72.725770000">
<ele>0</ele>
<time>2026-09-04T06:44:30Z</time>
</trkpt>
<trkpt lat="46.025940000" lon="-72.726410000">
<ele>0</ele>
<time>2026-09-04T06:44:31Z</time>
</trkpt>
<trkpt lat="46.026770000" lon="-72.728100000">
<ele>0</ele>
<time>2026-09-04T06:44:32Z</time>
</trkpt>
<trkpt lat="46.027810000" lon="-72.730210000">
<ele>0</ele>
<time>2026-09-04T06:44:33Z</time>
</trkpt>
<trkpt lat="46.028230000" lon="-72.731050000">
<ele>0</ele>
<time>2026-09-04T06:44:34Z</time>
</trkpt>
<trkpt lat="46.028640000" lon="-72.731860000">
<ele>0</ele>
<time>2026-09-04T06:44:35Z</time>
</trkpt>
<trkpt lat="46.028890000" lon="-72.732270000">
<ele>0</ele>
<time>2026-09-04T06:44:36Z</time>
</trkpt>
<trkpt lat="46.029250000" lon="-72.732860000">
<ele>0</ele>
<time>2026-09-04T06:44:37Z</time>
</trkpt>
<trkpt lat="46.029860000" lon="-72.733820000">
<ele>0</ele>
<time>2026-09-04T06:44:38Z</time>
</trkpt>
<trkpt lat="46.030210000" lon="-72.734400000">
<ele>0</ele>
<time>2026-09-04T06:44:39Z</time>
</trkpt>
<trkpt lat="46.030670000" lon="-72.735200000">
<ele>0</ele>
<time>2026-09-04T06:44:40Z</time>
</trkpt>
<trkpt lat="46.030910000" lon="-72.735620000">
<ele>0</ele>
<time>2026-09-04T06:44:41Z</time>
</trkpt>
<trkpt lat="46.031400000" lon="-72.736680000">
<ele>0</ele>
<time>2026-09-04T06:44:42Z</time>
</trkpt>
<trkpt lat="46.031790000" lon="-72.737550000">
<ele>0</ele>
<time>2026-09-04T06:44:43Z</time>
</trkpt>
<trkpt lat="46.032100000" lon="-72.738550000">
<ele>0</ele>
<time>2026-09-04T06:44:44Z</time>
</trkpt>
<trkpt lat="46.032210000" lon="-72.738980000">
<ele>0</ele>
<time>2026-09-04T06:44:45Z</time>
</trkpt>
<trkpt lat="46.032310000" lon="-72.739400000">
<ele>0</ele>
<time>2026-09-04T06:44:46Z</time>
</trkpt>
<trkpt lat="46.032400000" lon="-72.739970000">
<ele>0</ele>
<time>2026-09-04T06:44:47Z</time>
</trkpt>
<trkpt lat="46.032450000" lon="-72.740320000">
<ele>0</ele>
<time>2026-09-04T06:44:48Z</time>
</trkpt>
<trkpt lat="46.032500000" lon="-72.741540000">
<ele>0</ele>
<time>2026-09-04T06:44:49Z</time>
</trkpt>
<trkpt lat="46.032500000" lon="-72.742830000">
<ele>0</ele>
<time>2026-09-04T06:44:50Z</time>
</trkpt>
<trkpt lat="46.032470000" lon="-72.743610000">
<ele>0</ele>
<time>2026-09-04T06:44:51Z</time>
</trkpt>
<trkpt lat="46.032450000" lon="-72.744150000">
<ele>0</ele>
<time>2026-09-04T06:44:52Z</time>
</trkpt>
<trkpt lat="46.032390000" lon="-72.744640000">
<ele>0</ele>
<time>2026-09-04T06:44:53Z</time>
</trkpt>
<trkpt lat="46.032310000" lon="-72.745140000">
<ele>0</ele>
<time>2026-09-04T06:44:54Z</time>
</trkpt>
<trkpt lat="46.032270000" lon="-72.745390000">
<ele>0</ele>
<time>2026-09-04T06:44:55Z</time>
</trkpt>
<trkpt lat="46.031990000" lon="-72.746450000">
<ele>0</ele>
<time>2026-09-04T06:44:56Z</time>
</trkpt>
<trkpt lat="46.031790000" lon="-72.747350000">
<ele>0</ele>
<time>2026-09-04T06:44:57Z</time>
</trkpt>
<trkpt lat="46.031510000" lon="-72.748580000">
<ele>0</ele>
<time>2026-09-04T06:44:58Z</time>
</trkpt>
<trkpt lat="46.030970000" lon="-72.750780000">
<ele>0</ele>
<time>2026-09-04T06:44:59Z</time>
</trkpt>
<trkpt lat="46.030820000" lon="-72.751530000">
<ele>0</ele>
<time>2026-09-04T06:45:00Z</time>
</trkpt>
<trkpt lat="46.030720000" lon="-72.752020000">
<ele>0</ele>
<time>2026-09-04T06:45:01Z</time>
</trkpt>
<trkpt lat="46.030680000" lon="-72.752790000">
<ele>0</ele>
<time>2026-09-04T06:45:02Z</time>
</trkpt>
<trkpt lat="46.030660000" lon="-72.753380000">
<ele>0</ele>
<time>2026-09-04T06:45:03Z</time>
</trkpt>
<trkpt lat="46.030680000" lon="-72.754200000">
<ele>0</ele>
<time>2026-09-04T06:45:04Z</time>
</trkpt>
<trkpt lat="46.030750000" lon="-72.755630000">
<ele>0</ele>
<time>2026-09-04T06:45:05Z</time>
</trkpt>
<trkpt lat="46.030940000" lon="-72.758190000">
<ele>0</ele>
<time>2026-09-04T06:45:06Z</time>
</trkpt>
<trkpt lat="46.031140000" lon="-72.760580000">
<ele>0</ele>
<time>2026-09-04T06:45:07Z</time>
</trkpt>
<trkpt lat="46.031300000" lon="-72.761830000">
<ele>0</ele>
<time>2026-09-04T06:45:08Z</time>
</trkpt>
<trkpt lat="46.031420000" lon="-72.762480000">
<ele>0</ele>
<time>2026-09-04T06:45:09Z</time>
</trkpt>
<trkpt lat="46.031520000" lon="-72.762910000">
<ele>0</ele>
<time>2026-09-04T06:45:10Z</time>
</trkpt>
<trkpt lat="46.031880000" lon="-72.764110000">
<ele>0</ele>
<time>2026-09-04T06:45:11Z</time>
</trkpt>
<trkpt lat="46.032330000" lon="-72.765360000">
<ele>0</ele>
<time>2026-09-04T06:45:12Z</time>
</trkpt>
<trkpt lat="46.032660000" lon="-72.766410000">
<ele>0</ele>
<time>2026-09-04T06:45:13Z</time>
</trkpt>
<trkpt lat="46.033130000" lon="-72.768040000">
<ele>0</ele>
<time>2026-09-04T06:45:14Z</time>
</trkpt>
<trkpt lat="46.033480000" lon="-72.770070000">
<ele>0</ele>
<time>2026-09-04T06:45:15Z</time>
</trkpt>
<trkpt lat="46.033640000" lon="-72.771260000">
<ele>0</ele>
<time>2026-09-04T06:45:16Z</time>
</trkpt>
<trkpt lat="46.033730000" lon="-72.772040000">
<ele>0</ele>
<time>2026-09-04T06:45:17Z</time>
</trkpt>
<trkpt lat="46.033870000" lon="-72.772810000">
<ele>0</ele>
<time>2026-09-04T06:45:18Z</time>
</trkpt>
<trkpt lat="46.034010000" lon="-72.773390000">
<ele>0</ele>
<time>2026-09-04T06:45:19Z</time>
</trkpt>
<trkpt lat="46.034090000" lon="-72.773670000">
<ele>0</ele>
<time>2026-09-04T06:45:20Z</time>
</trkpt>
<trkpt lat="46.034490000" lon="-72.774480000">
<ele>0</ele>
<time>2026-09-04T06:45:21Z</time>
</trkpt>
<trkpt lat="46.034590000" lon="-72.774700000">
<ele>0</ele>
<time>2026-09-04T06:45:22Z</time>
</trkpt>
<trkpt lat="46.034720000" lon="-72.774870000">
<ele>0</ele>
<time>2026-09-04T06:45:23Z</time>
</trkpt>
<trkpt lat="46.034800000" lon="-72.774980000">
<ele>0</ele>
<time>2026-09-04T06:45:24Z</time>
</trkpt>
<trkpt lat="46.035100000" lon="-72.775260000">
<ele>0</ele>
<time>2026-09-04T06:45:25Z</time>
</trkpt>
<trkpt lat="46.035640000" lon="-72.775780000">
<ele>0</ele>
<time>2026-09-04T06:45:26Z</time>
</trkpt>
<trkpt lat="46.035910000" lon="-72.776110000">
<ele>0</ele>
<time>2026-09-04T06:45:27Z</time>
</trkpt>
<trkpt lat="46.036050000" lon="-72.776370000">
<ele>0</ele>
<time>2026-09-04T06:45:28Z</time>
</trkpt>
<trkpt lat="46.036100000" lon="-72.776550000">
<ele>0</ele>
<time>2026-09-04T06:45:29Z</time>
</trkpt>
<trkpt lat="46.036100000" lon="-72.776760000">
<ele>0</ele>
<time>2026-09-04T06:45:30Z</time>
</trkpt>
<trkpt lat="46.036010000" lon="-72.777450000">
<ele>0</ele>
<time>2026-09-04T06:45:31Z</time>
</trkpt>
<trkpt lat="46.036080000" lon="-72.777470000">
<ele>0</ele>
<time>2026-09-04T06:45:32Z</time>
</trkpt>
<trkpt lat="46.036080000" lon="-72.777470000">
<ele>0</ele>
<time>2026-09-04T06:45:33Z</time>
</trkpt>
<trkpt lat="46.036260000" lon="-72.777530000">
<ele>0</ele>
<time>2026-09-04T06:45:34Z</time>
</trkpt>
<trkpt lat="46.036620000" lon="-72.777690000">
<ele>0</ele>
<time>2026-09-04T06:45:35Z</time>
</trkpt>
<trkpt lat="46.036960000" lon="-72.777900000">
<ele>0</ele>
<time>2026-09-04T06:45:36Z</time>
</trkpt>
<trkpt lat="46.037220000" lon="-72.778110000">
<ele>0</ele>
<time>2026-09-04T06:45:37Z</time>
</trkpt>
<trkpt lat="46.037390000" lon="-72.778260000">
<ele>0</ele>
<time>2026-09-04T06:45:38Z</time>
</trkpt>
<trkpt lat="46.037670000" lon="-72.778580000">
<ele>0</ele>
<time>2026-09-04T06:45:39Z</time>
</trkpt>
<trkpt lat="46.038190000" lon="-72.779310000">
<ele>0</ele>
<time>2026-09-04T06:45:40Z</time>
</trkpt>
<trkpt lat="46.038820000" lon="-72.780210000">
<ele>0</ele>
<time>2026-09-04T06:45:41Z</time>
</trkpt>
<trkpt lat="46.039060000" lon="-72.780530000">
<ele>0</ele>
<time>2026-09-04T06:45:42Z</time>
</trkpt>
<trkpt lat="46.039330000" lon="-72.780900000">
<ele>0</ele>
<time>2026-09-04T06:45:43Z</time>
</trkpt>
<trkpt lat="46.039750000" lon="-72.781340000">
<ele>0</ele>
<time>2026-09-04T06:45:44Z</time>
</trkpt>
<trkpt lat="46.040280000" lon="-72.781730000">
<ele>0</ele>
<time>2026-09-04T06:45:45Z</time>
</trkpt>
<trkpt lat="46.041480000" lon="-72.782330000">
<ele>0</ele>
<time>2026-09-04T06:45:46Z</time>
</trkpt>
<trkpt lat="46.042850000" lon="-72.782970000">
<ele>0</ele>
<time>2026-09-04T06:45:47Z</time>
</trkpt>
<trkpt lat="46.043670000" lon="-72.783360000">
<ele>0</ele>
<time>2026-09-04T06:45:48Z</time>
</trkpt>
<trkpt lat="46.044160000" lon="-72.783630000">
<ele>0</ele>
<time>2026-09-04T06:45:49Z</time>
</trkpt>
<trkpt lat="46.044680000" lon="-72.783970000">
<ele>0</ele>
<time>2026-09-04T06:45:50Z</time>
</trkpt>
<trkpt lat="46.045060000" lon="-72.784220000">
<ele>0</ele>
<time>2026-09-04T06:45:51Z</time>
</trkpt>
<trkpt lat="46.045720000" lon="-72.784750000">
<ele>0</ele>
<time>2026-09-04T06:45:52Z</time>
</trkpt>
<trkpt lat="46.046160000" lon="-72.785160000">
<ele>0</ele>
<time>2026-09-04T06:45:53Z</time>
</trkpt>
<trkpt lat="46.046290000" lon="-72.785300000">
<ele>0</ele>
<time>2026-09-04T06:45:54Z</time>
</trkpt>
<trkpt lat="46.046830000" lon="-72.785900000">
<ele>0</ele>
<time>2026-09-04T06:45:55Z</time>
</trkpt>
<trkpt lat="46.047270000" lon="-72.786430000">
<ele>0</ele>
<time>2026-09-04T06:45:56Z</time>
</trkpt>
<trkpt lat="46.047840000" lon="-72.787220000">
<ele>0</ele>
<time>2026-09-04T06:45:57Z</time>
</trkpt>
<trkpt lat="46.048030000" lon="-72.787530000">
<ele>0</ele>
<time>2026-09-04T06:45:58Z</time>
</trkpt>
<trkpt lat="46.048820000" lon="-72.788940000">
<ele>0</ele>
<time>2026-09-04T06:45:59Z</time>
</trkpt>
<trkpt lat="46.049170000" lon="-72.789590000">
<ele>0</ele>
<time>2026-09-04T06:46:00Z</time>
</trkpt>
<trkpt lat="46.049260000" lon="-72.789760000">
<ele>0</ele>
<time>2026-09-04T06:46:01Z</time>
</trkpt>
<trkpt lat="46.050860000" lon="-72.792830000">
<ele>0</ele>
<time>2026-09-04T06:46:02Z</time>
</trkpt>
<trkpt lat="46.051430000" lon="-72.793900000">
<ele>0</ele>
<time>2026-09-04T06:46:03Z</time>
</trkpt>
<trkpt lat="46.051980000" lon="-72.794960000">
<ele>0</ele>
<time>2026-09-04T06:46:04Z</time>
</trkpt>
<trkpt lat="46.052200000" lon="-72.795450000">
<ele>0</ele>
<time>2026-09-04T06:46:05Z</time>
</trkpt>
<trkpt lat="46.052460000" lon="-72.796130000">
<ele>0</ele>
<time>2026-09-04T06:46:06Z</time>
</trkpt>
<trkpt lat="46.052680000" lon="-72.796650000">
<ele>0</ele>
<time>2026-09-04T06:46:07Z</time>
</trkpt>
<trkpt lat="46.052950000" lon="-72.797310000">
<ele>0</ele>
<time>2026-09-04T06:46:08Z</time>
</trkpt>
<trkpt lat="46.053220000" lon="-72.798060000">
<ele>0</ele>
<time>2026-09-04T06:46:09Z</time>
</trkpt>
<trkpt lat="46.053380000" lon="-72.798640000">
<ele>0</ele>
<time>2026-09-04T06:46:10Z</time>
</trkpt>
<trkpt lat="46.053470000" lon="-72.799330000">
<ele>0</ele>
<time>2026-09-04T06:46:11Z</time>
</trkpt>
<trkpt lat="46.053460000" lon="-72.799780000">
<ele>0</ele>
<time>2026-09-04T06:46:12Z</time>
</trkpt>
<trkpt lat="46.053300000" lon="-72.800910000">
<ele>0</ele>
<time>2026-09-04T06:46:13Z</time>
</trkpt>
<trkpt lat="46.053030000" lon="-72.802610000">
<ele>0</ele>
<time>2026-09-04T06:46:14Z</time>
</trkpt>
<trkpt lat="46.052920000" lon="-72.803460000">
<ele>0</ele>
<time>2026-09-04T06:46:15Z</time>
</trkpt>
<trkpt lat="46.052920000" lon="-72.804070000">
<ele>0</ele>
<time>2026-09-04T06:46:16Z</time>
</trkpt>
<trkpt lat="46.053010000" lon="-72.804640000">
<ele>0</ele>
<time>2026-09-04T06:46:17Z</time>
</trkpt>
<trkpt lat="46.053220000" lon="-72.805370000">
<ele>0</ele>
<time>2026-09-04T06:46:18Z</time>
</trkpt>
<trkpt lat="46.053310000" lon="-72.805580000">
<ele>0</ele>
<time>2026-09-04T06:46:19Z</time>
</trkpt>
<trkpt lat="46.053410000" lon="-72.805770000">
<ele>0</ele>
<time>2026-09-04T06:46:20Z</time>
</trkpt>
<trkpt lat="46.053600000" lon="-72.806080000">
<ele>0</ele>
<time>2026-09-04T06:46:21Z</time>
</trkpt>
<trkpt lat="46.053720000" lon="-72.806230000">
<ele>0</ele>
<time>2026-09-04T06:46:22Z</time>
</trkpt>
<trkpt lat="46.053870000" lon="-72.806380000">
<ele>0</ele>
<time>2026-09-04T06:46:23Z</time>
</trkpt>
<trkpt lat="46.053990000" lon="-72.806480000">
<ele>0</ele>
<time>2026-09-04T06:46:24Z</time>
</trkpt>
<trkpt lat="46.054850000" lon="-72.807040000">
<ele>0</ele>
<time>2026-09-04T06:46:25Z</time>
</trkpt>
<trkpt lat="46.056330000" lon="-72.807970000">
<ele>0</ele>
<time>2026-09-04T06:46:26Z</time>
</trkpt>
<trkpt lat="46.058180000" lon="-72.809140000">
<ele>0</ele>
<time>2026-09-04T06:46:27Z</time>
</trkpt>
<trkpt lat="46.060400000" lon="-72.810720000">
<ele>0</ele>
<time>2026-09-04T06:46:28Z</time>
</trkpt>
<trkpt lat="46.060720000" lon="-72.810950000">
<ele>0</ele>
<time>2026-09-04T06:46:29Z</time>
</trkpt>
<trkpt lat="46.061140000" lon="-72.811330000">
<ele>0</ele>
<time>2026-09-04T06:46:30Z</time>
</trkpt>
<trkpt lat="46.061600000" lon="-72.812040000">
<ele>0</ele>
<time>2026-09-04T06:46:31Z</time>
</trkpt>
<trkpt lat="46.061650000" lon="-72.812150000">
<ele>0</ele>
<time>2026-09-04T06:46:32Z</time>
</trkpt>
<trkpt lat="46.062200000" lon="-72.813380000">
<ele>0</ele>
<time>2026-09-04T06:46:33Z</time>
</trkpt>
<trkpt lat="46.062320000" lon="-72.813670000">
<ele>0</ele>
<time>2026-09-04T06:46:34Z</time>
</trkpt>
<trkpt lat="46.062440000" lon="-72.814010000">
<ele>0</ele>
<time>2026-09-04T06:46:35Z</time>
</trkpt>
<trkpt lat="46.062560000" lon="-72.814520000">
<ele>0</ele>
<time>2026-09-04T06:46:36Z</time>
</trkpt>
<trkpt lat="46.062770000" lon="-72.815510000">
<ele>0</ele>
<time>2026-09-04T06:46:37Z</time>
</trkpt>
<trkpt lat="46.062990000" lon="-72.816330000">
<ele>0</ele>
<time>2026-09-04T06:46:38Z</time>
</trkpt>
<trkpt lat="46.063330000" lon="-72.817620000">
<ele>0</ele>
<time>2026-09-04T06:46:39Z</time>
</trkpt>
<trkpt lat="46.063460000" lon="-72.818010000">
<ele>0</ele>
<time>2026-09-04T06:46:40Z</time>
</trkpt>
<trkpt lat="46.063770000" lon="-72.819030000">
<ele>0</ele>
<time>2026-09-04T06:46:41Z</time>
</trkpt>
<trkpt lat="46.063840000" lon="-72.818990000">
<ele>0</ele>
<time>2026-09-04T06:46:42Z</time>
</trkpt>
<trkpt lat="46.063840000" lon="-72.818990000">
<ele>0</ele>
<time>2026-09-04T06:46:43Z</time>
</trkpt>
<trkpt lat="46.064230000" lon="-72.818700000">
<ele>0</ele>
<time>2026-09-04T06:46:44Z</time>
</trkpt>
<trkpt lat="46.064370000" lon="-72.818590000">
<ele>0</ele>
<time>2026-09-04T06:46:45Z</time>
</trkpt>
<trkpt lat="46.066170000" lon="-72.817180000">
<ele>0</ele>
<time>2026-09-04T06:46:46Z</time>
</trkpt>
<trkpt lat="46.067880000" lon="-72.815830000">
<ele>0</ele>
<time>2026-09-04T06:46:47Z</time>
</trkpt>
<trkpt lat="46.068170000" lon="-72.815560000">
<ele>0</ele>
<time>2026-09-04T06:46:48Z</time>
</trkpt>
<trkpt lat="46.068510000" lon="-72.815180000">
<ele>0</ele>
<time>2026-09-04T06:46:49Z</time>
</trkpt>
<trkpt lat="46.069010000" lon="-72.814590000">
<ele>0</ele>
<time>2026-09-04T06:46:50Z</time>
</trkpt>
<trkpt lat="46.069400000" lon="-72.814040000">
<ele>0</ele>
<time>2026-09-04T06:46:51Z</time>
</trkpt>
<trkpt lat="46.069590000" lon="-72.813740000">
<ele>0</ele>
<time>2026-09-04T06:46:52Z</time>
</trkpt>
<trkpt lat="46.069570000" lon="-72.813680000">
<ele>0</ele>
<time>2026-09-04T06:46:53Z</time>
</trkpt>
<trkpt lat="46.069570000" lon="-72.813680000">
<ele>0</ele>
<time>2026-09-04T06:46:54Z</time>
</trkpt>
<trkpt lat="46.069230000" lon="-72.812990000">
<ele>0</ele>
<time>2026-09-04T06:46:55Z</time>
</trkpt>
<trkpt lat="46.069190000" lon="-72.813030000">
<ele>0</ele>
<time>2026-09-04T06:46:56Z</time>
</trkpt>
<trkpt lat="46.069190000" lon="-72.813030000">
<ele>0</ele>
<time>2026-09-04T06:46:57Z</time>
</trkpt>
<trkpt lat="46.069000000" lon="-72.813210000">
<ele>0</ele>
<time>2026-09-04T06:46:58Z</time>
</trkpt>
<trkpt lat="46.068450000" lon="-72.813640000">
<ele>0</ele>
<time>2026-09-04T06:46:59Z</time>
</trkpt>
<trkpt lat="46.068260000" lon="-72.813780000">
<ele>0</ele>
<time>2026-09-04T06:47:00Z</time>
</trkpt>
<trkpt lat="46.068220000" lon="-72.813720000">
<ele>0</ele>
<time>2026-09-04T06:47:01Z</time>
</trkpt>
<trkpt lat="46.068220000" lon="-72.813720000">
<ele>0</ele>
<time>2026-09-04T06:47:02Z</time>
</trkpt>
<trkpt lat="46.067140000" lon="-72.812360000">
<ele>0</ele>
<time>2026-09-04T06:47:03Z</time>
</trkpt>
</trkseg>
</trk>
</gpx>
